<?xml version="1.0" encoding="UTF-8" standalone="no" ?>
<gpx xmlns="http://www.topografix.com/GPX/1/1" xmlns:xsi="http://www.w3.org/2001/XMLSchema-instance" xsi:schemaLocation="http://www.topografix.com/GPX/1/1 http://www.topografix.com/GPX/1/1/gpx.xsd" version="1.1" creator="VisuGPX - https://www.visugpx.com">
  <metadata>
    <name>Les Gorges de Véroncles par Joucas</name>
    <desc><![CDATA[Le circuit comporte des chaines et des marches sans grandes difficultés]]></desc>
  </metadata>
  <trk>
    <name><![CDATA[Gorges de Véroncle par Joucas]]></name>
    <trkseg>
      <trkpt lat="43.91677" lon="5.23303">
        <ele>229.89</ele>
        <time>2009-05-19T08:08:03Z</time>
      </trkpt>
      <trkpt lat="43.91681" lon="5.23291">
        <ele>220.76</ele>
        <time>2009-05-19T08:08:26Z</time>
      </trkpt>
      <trkpt lat="43.91669" lon="5.23291">
        <ele>218.84</ele>
        <time>2009-05-19T08:08:43Z</time>
      </trkpt>
      <trkpt lat="43.91673" lon="5.23288">
        <ele>219.32</ele>
        <time>2009-05-19T08:09:12Z</time>
      </trkpt>
      <trkpt lat="43.91673" lon="5.23295">
        <ele>218.36</ele>
        <time>2009-05-19T08:09:18Z</time>
      </trkpt>
      <trkpt lat="43.91671" lon="5.23304">
        <ele>217.4</ele>
        <time>2009-05-19T08:09:28Z</time>
      </trkpt>
      <trkpt lat="43.91658" lon="5.23286">
        <ele>217.88</ele>
        <time>2009-05-19T08:09:43Z</time>
      </trkpt>
      <trkpt lat="43.91651" lon="5.23262">
        <ele>217.4</ele>
        <time>2009-05-19T08:10:00Z</time>
      </trkpt>
      <trkpt lat="43.91647" lon="5.23241">
        <ele>215.95</ele>
        <time>2009-05-19T08:10:14Z</time>
      </trkpt>
      <trkpt lat="43.91644" lon="5.23223">
        <ele>216.91</ele>
        <time>2009-05-19T08:10:29Z</time>
      </trkpt>
      <trkpt lat="43.91643" lon="5.23201">
        <ele>221.72</ele>
        <time>2009-05-19T08:10:46Z</time>
      </trkpt>
      <trkpt lat="43.91643" lon="5.2318">
        <ele>220.28</ele>
        <time>2009-05-19T08:11:00Z</time>
      </trkpt>
      <trkpt lat="43.91643" lon="5.23154">
        <ele>224.61</ele>
        <time>2009-05-19T08:11:16Z</time>
      </trkpt>
      <trkpt lat="43.91646" lon="5.23127">
        <ele>227.01</ele>
        <time>2009-05-19T08:11:37Z</time>
      </trkpt>
      <trkpt lat="43.91655" lon="5.23101">
        <ele>226.05</ele>
        <time>2009-05-19T08:11:53Z</time>
      </trkpt>
      <trkpt lat="43.91655" lon="5.23082">
        <ele>225.09</ele>
        <time>2009-05-19T08:12:07Z</time>
      </trkpt>
      <trkpt lat="43.91656" lon="5.23055">
        <ele>223.64</ele>
        <time>2009-05-19T08:12:25Z</time>
      </trkpt>
      <trkpt lat="43.91657" lon="5.2303">
        <ele>223.16</ele>
        <time>2009-05-19T08:12:42Z</time>
      </trkpt>
      <trkpt lat="43.91659" lon="5.23">
        <ele>219.32</ele>
        <time>2009-05-19T08:12:59Z</time>
      </trkpt>
      <trkpt lat="43.91659" lon="5.22972">
        <ele>219.32</ele>
        <time>2009-05-19T08:13:18Z</time>
      </trkpt>
      <trkpt lat="43.91658" lon="5.22957">
        <ele>220.28</ele>
        <time>2009-05-19T08:13:28Z</time>
      </trkpt>
      <trkpt lat="43.91658" lon="5.22932">
        <ele>223.64</ele>
        <time>2009-05-19T08:13:47Z</time>
      </trkpt>
      <trkpt lat="43.91656" lon="5.22922">
        <ele>224.12</ele>
        <time>2009-05-19T08:13:54Z</time>
      </trkpt>
      <trkpt lat="43.91654" lon="5.22899">
        <ele>219.32</ele>
        <time>2009-05-19T08:14:09Z</time>
      </trkpt>
      <trkpt lat="43.91641" lon="5.22895">
        <ele>217.4</ele>
        <time>2009-05-19T08:14:27Z</time>
      </trkpt>
      <trkpt lat="43.91633" lon="5.22897">
        <ele>217.4</ele>
        <time>2009-05-19T08:14:36Z</time>
      </trkpt>
      <trkpt lat="43.91618" lon="5.229">
        <ele>216.91</ele>
        <time>2009-05-19T08:14:51Z</time>
      </trkpt>
      <trkpt lat="43.91612" lon="5.229">
        <ele>214.51</ele>
        <time>2009-05-19T08:14:56Z</time>
      </trkpt>
      <trkpt lat="43.916" lon="5.22888">
        <ele>214.03</ele>
        <time>2009-05-19T08:15:13Z</time>
      </trkpt>
      <trkpt lat="43.91585" lon="5.22869">
        <ele>213.55</ele>
        <time>2009-05-19T08:15:31Z</time>
      </trkpt>
      <trkpt lat="43.91578" lon="5.22857">
        <ele>212.11</ele>
        <time>2009-05-19T08:15:40Z</time>
      </trkpt>
      <trkpt lat="43.9158" lon="5.22845">
        <ele>212.59</ele>
        <time>2009-05-19T08:15:54Z</time>
      </trkpt>
      <trkpt lat="43.91586" lon="5.22841">
        <ele>213.07</ele>
        <time>2009-05-19T08:16:11Z</time>
      </trkpt>
      <trkpt lat="43.91596" lon="5.2283">
        <ele>212.59</ele>
        <time>2009-05-19T08:16:28Z</time>
      </trkpt>
      <trkpt lat="43.91602" lon="5.22826">
        <ele>211.63</ele>
        <time>2009-05-19T08:16:34Z</time>
      </trkpt>
      <trkpt lat="43.91615" lon="5.22816">
        <ele>215.47</ele>
        <time>2009-05-19T08:16:50Z</time>
      </trkpt>
      <trkpt lat="43.91627" lon="5.22805">
        <ele>212.11</ele>
        <time>2009-05-19T08:17:03Z</time>
      </trkpt>
      <trkpt lat="43.91641" lon="5.22798">
        <ele>215.47</ele>
        <time>2009-05-19T08:17:18Z</time>
      </trkpt>
      <trkpt lat="43.91652" lon="5.22793">
        <ele>219.8</ele>
        <time>2009-05-19T08:17:35Z</time>
      </trkpt>
      <trkpt lat="43.91664" lon="5.22787">
        <ele>223.16</ele>
        <time>2009-05-19T08:17:55Z</time>
      </trkpt>
      <trkpt lat="43.91679" lon="5.2278">
        <ele>225.57</ele>
        <time>2009-05-19T08:18:15Z</time>
      </trkpt>
      <trkpt lat="43.9169" lon="5.22768">
        <ele>227.49</ele>
        <time>2009-05-19T08:18:33Z</time>
      </trkpt>
      <trkpt lat="43.91706" lon="5.22759">
        <ele>230.37</ele>
        <time>2009-05-19T08:18:53Z</time>
      </trkpt>
      <trkpt lat="43.91723" lon="5.2275">
        <ele>232.78</ele>
        <time>2009-05-19T08:19:15Z</time>
      </trkpt>
      <trkpt lat="43.91736" lon="5.22745">
        <ele>233.74</ele>
        <time>2009-05-19T08:19:33Z</time>
      </trkpt>
      <trkpt lat="43.91751" lon="5.22738">
        <ele>236.14</ele>
        <time>2009-05-19T08:19:52Z</time>
      </trkpt>
      <trkpt lat="43.91764" lon="5.22728">
        <ele>238.06</ele>
        <time>2009-05-19T08:20:10Z</time>
      </trkpt>
      <trkpt lat="43.91777" lon="5.22721">
        <ele>239.99</ele>
        <time>2009-05-19T08:20:27Z</time>
      </trkpt>
      <trkpt lat="43.91791" lon="5.22716">
        <ele>242.39</ele>
        <time>2009-05-19T08:20:45Z</time>
      </trkpt>
      <trkpt lat="43.91797" lon="5.22715">
        <ele>243.35</ele>
        <time>2009-05-19T08:20:53Z</time>
      </trkpt>
      <trkpt lat="43.91813" lon="5.22713">
        <ele>245.75</ele>
        <time>2009-05-19T08:21:09Z</time>
      </trkpt>
      <trkpt lat="43.9183" lon="5.22712">
        <ele>248.16</ele>
        <time>2009-05-19T08:21:29Z</time>
      </trkpt>
      <trkpt lat="43.91846" lon="5.22702">
        <ele>250.08</ele>
        <time>2009-05-19T08:21:45Z</time>
      </trkpt>
      <trkpt lat="43.9185" lon="5.227">
        <ele>250.56</ele>
        <time>2009-05-19T08:21:49Z</time>
      </trkpt>
      <trkpt lat="43.91854" lon="5.22699">
        <ele>251.04</ele>
        <time>2009-05-19T08:21:53Z</time>
      </trkpt>
      <trkpt lat="43.91872" lon="5.22689">
        <ele>252.96</ele>
        <time>2009-05-19T08:22:13Z</time>
      </trkpt>
      <trkpt lat="43.91883" lon="5.22689">
        <ele>253.93</ele>
        <time>2009-05-19T08:22:30Z</time>
      </trkpt>
      <trkpt lat="43.91891" lon="5.22692">
        <ele>251.04</ele>
        <time>2009-05-19T08:22:44Z</time>
      </trkpt>
      <trkpt lat="43.91898" lon="5.22691">
        <ele>249.6</ele>
        <time>2009-05-19T08:22:53Z</time>
      </trkpt>
      <trkpt lat="43.91909" lon="5.22697">
        <ele>248.16</ele>
        <time>2009-05-19T08:23:09Z</time>
      </trkpt>
      <trkpt lat="43.9192" lon="5.22701">
        <ele>248.16</ele>
        <time>2009-05-19T08:23:25Z</time>
      </trkpt>
      <trkpt lat="43.91926" lon="5.22707">
        <ele>243.35</ele>
        <time>2009-05-19T08:23:38Z</time>
      </trkpt>
      <trkpt lat="43.91918" lon="5.22713">
        <ele>241.91</ele>
        <time>2009-05-19T08:23:54Z</time>
      </trkpt>
      <trkpt lat="43.91908" lon="5.22721">
        <ele>239.51</ele>
        <time>2009-05-19T08:24:10Z</time>
      </trkpt>
      <trkpt lat="43.919" lon="5.22726">
        <ele>239.02</ele>
        <time>2009-05-19T08:24:27Z</time>
      </trkpt>
      <trkpt lat="43.91889" lon="5.22735">
        <ele>237.1</ele>
        <time>2009-05-19T08:24:43Z</time>
      </trkpt>
      <trkpt lat="43.91879" lon="5.22737">
        <ele>233.74</ele>
        <time>2009-05-19T08:24:56Z</time>
      </trkpt>
      <trkpt lat="43.91871" lon="5.2274">
        <ele>235.18</ele>
        <time>2009-05-19T08:25:08Z</time>
      </trkpt>
      <trkpt lat="43.91877" lon="5.22742">
        <ele>234.22</ele>
        <time>2009-05-19T08:25:22Z</time>
      </trkpt>
      <trkpt lat="43.91885" lon="5.22742">
        <ele>227.97</ele>
        <time>2009-05-19T08:25:36Z</time>
      </trkpt>
      <trkpt lat="43.91891" lon="5.22741">
        <ele>227.01</ele>
        <time>2009-05-19T08:25:50Z</time>
      </trkpt>
      <trkpt lat="43.91896" lon="5.22752">
        <ele>230.85</ele>
        <time>2009-05-19T08:26:10Z</time>
      </trkpt>
      <trkpt lat="43.91903" lon="5.22761">
        <ele>239.99</ele>
        <time>2009-05-19T08:26:58Z</time>
      </trkpt>
      <trkpt lat="43.91915" lon="5.22756">
        <ele>228.45</ele>
        <time>2009-05-19T08:27:47Z</time>
      </trkpt>
      <trkpt lat="43.91915" lon="5.22755">
        <ele>235.66</ele>
        <time>2009-05-19T08:28:12Z</time>
      </trkpt>
      <trkpt lat="43.91913" lon="5.2276">
        <ele>228.93</ele>
        <time>2009-05-19T08:28:58Z</time>
      </trkpt>
      <trkpt lat="43.9191" lon="5.22763">
        <ele>238.54</ele>
        <time>2009-05-19T08:29:32Z</time>
      </trkpt>
      <trkpt lat="43.91916" lon="5.22761">
        <ele>241.91</ele>
        <time>2009-05-19T08:29:57Z</time>
      </trkpt>
      <trkpt lat="43.91921" lon="5.22757">
        <ele>244.79</ele>
        <time>2009-05-19T08:30:15Z</time>
      </trkpt>
      <trkpt lat="43.91929" lon="5.22762">
        <ele>250.08</ele>
        <time>2009-05-19T08:30:27Z</time>
      </trkpt>
      <trkpt lat="43.9194" lon="5.22761">
        <ele>250.56</ele>
        <time>2009-05-19T08:30:39Z</time>
      </trkpt>
      <trkpt lat="43.91947" lon="5.22756">
        <ele>250.56</ele>
        <time>2009-05-19T08:30:58Z</time>
      </trkpt>
      <trkpt lat="43.91947" lon="5.22768">
        <ele>276.04</ele>
        <time>2009-05-19T08:31:26Z</time>
      </trkpt>
      <trkpt lat="43.91942" lon="5.22753">
        <ele>299.59</ele>
        <time>2009-05-19T08:31:44Z</time>
      </trkpt>
      <trkpt lat="43.91953" lon="5.22743">
        <ele>298.15</ele>
        <time>2009-05-19T08:32:10Z</time>
      </trkpt>
      <trkpt lat="43.91959" lon="5.2275">
        <ele>299.11</ele>
        <time>2009-05-19T08:32:48Z</time>
      </trkpt>
      <trkpt lat="43.91957" lon="5.22754">
        <ele>304.88</ele>
        <time>2009-05-19T08:33:14Z</time>
      </trkpt>
      <trkpt lat="43.91962" lon="5.22751">
        <ele>307.28</ele>
        <time>2009-05-19T08:33:26Z</time>
      </trkpt>
      <trkpt lat="43.91969" lon="5.22742">
        <ele>314.01</ele>
        <time>2009-05-19T08:33:41Z</time>
      </trkpt>
      <trkpt lat="43.9198" lon="5.22727">
        <ele>309.68</ele>
        <time>2009-05-19T08:33:55Z</time>
      </trkpt>
      <trkpt lat="43.91995" lon="5.22721">
        <ele>304.39</ele>
        <time>2009-05-19T08:34:11Z</time>
      </trkpt>
      <trkpt lat="43.92009" lon="5.22715">
        <ele>296.7</ele>
        <time>2009-05-19T08:34:26Z</time>
      </trkpt>
      <trkpt lat="43.92009" lon="5.2271">
        <ele>291.9</ele>
        <time>2009-05-19T08:34:50Z</time>
      </trkpt>
      <trkpt lat="43.92019" lon="5.22716">
        <ele>287.57</ele>
        <time>2009-05-19T08:35:02Z</time>
      </trkpt>
      <trkpt lat="43.92027" lon="5.22716">
        <ele>277.96</ele>
        <time>2009-05-19T08:35:24Z</time>
      </trkpt>
      <trkpt lat="43.92033" lon="5.22712">
        <ele>283.73</ele>
        <time>2009-05-19T08:35:41Z</time>
      </trkpt>
      <trkpt lat="43.92068" lon="5.22671">
        <ele>239.99</ele>
        <time>2009-05-19T08:36:48Z</time>
      </trkpt>
      <trkpt lat="43.92069" lon="5.22675">
        <ele>248.64</ele>
        <time>2009-05-19T08:37:07Z</time>
      </trkpt>
      <trkpt lat="43.92063" lon="5.22662">
        <ele>252.96</ele>
        <time>2009-05-19T08:37:25Z</time>
      </trkpt>
      <trkpt lat="43.92065" lon="5.22665">
        <ele>255.37</ele>
        <time>2009-05-19T08:37:40Z</time>
      </trkpt>
      <trkpt lat="43.92073" lon="5.22653">
        <ele>242.87</ele>
        <time>2009-05-19T08:37:53Z</time>
      </trkpt>
      <trkpt lat="43.92079" lon="5.22637">
        <ele>240.95</ele>
        <time>2009-05-19T08:38:09Z</time>
      </trkpt>
      <trkpt lat="43.92091" lon="5.22623">
        <ele>245.75</ele>
        <time>2009-05-19T08:38:22Z</time>
      </trkpt>
      <trkpt lat="43.92107" lon="5.22614">
        <ele>241.43</ele>
        <time>2009-05-19T08:38:39Z</time>
      </trkpt>
      <trkpt lat="43.92122" lon="5.22614">
        <ele>246.72</ele>
        <time>2009-05-19T08:39:12Z</time>
      </trkpt>
      <trkpt lat="43.92131" lon="5.22608">
        <ele>246.72</ele>
        <time>2009-05-19T08:39:25Z</time>
      </trkpt>
      <trkpt lat="43.9214" lon="5.22607">
        <ele>246.23</ele>
        <time>2009-05-19T08:39:39Z</time>
      </trkpt>
      <trkpt lat="43.9215" lon="5.22592">
        <ele>250.08</ele>
        <time>2009-05-19T08:40:10Z</time>
      </trkpt>
      <trkpt lat="43.92156" lon="5.22598">
        <ele>254.89</ele>
        <time>2009-05-19T08:40:24Z</time>
      </trkpt>
      <trkpt lat="43.92162" lon="5.22584">
        <ele>256.33</ele>
        <time>2009-05-19T08:40:44Z</time>
      </trkpt>
      <trkpt lat="43.92172" lon="5.22574">
        <ele>262.58</ele>
        <time>2009-05-19T08:41:05Z</time>
      </trkpt>
      <trkpt lat="43.9218" lon="5.22575">
        <ele>261.14</ele>
        <time>2009-05-19T08:41:19Z</time>
      </trkpt>
      <trkpt lat="43.92197" lon="5.22569">
        <ele>252.48</ele>
        <time>2009-05-19T08:41:34Z</time>
      </trkpt>
      <trkpt lat="43.92204" lon="5.22557">
        <ele>252.96</ele>
        <time>2009-05-19T08:41:57Z</time>
      </trkpt>
      <trkpt lat="43.92212" lon="5.22558">
        <ele>248.64</ele>
        <time>2009-05-19T08:42:38Z</time>
      </trkpt>
      <trkpt lat="43.92231" lon="5.22557">
        <ele>250.56</ele>
        <time>2009-05-19T08:43:10Z</time>
      </trkpt>
      <trkpt lat="43.92231" lon="5.22554">
        <ele>265.94</ele>
        <time>2009-05-19T08:43:37Z</time>
      </trkpt>
      <trkpt lat="43.92225" lon="5.22541">
        <ele>278.92</ele>
        <time>2009-05-19T08:44:00Z</time>
      </trkpt>
      <trkpt lat="43.92225" lon="5.2254">
        <ele>279.88</ele>
        <time>2009-05-19T08:44:01Z</time>
      </trkpt>
      <trkpt lat="43.92235" lon="5.22541">
        <ele>292.86</ele>
        <time>2009-05-19T08:44:15Z</time>
      </trkpt>
      <trkpt lat="43.9224" lon="5.2255">
        <ele>269.31</ele>
        <time>2009-05-19T08:44:39Z</time>
      </trkpt>
      <trkpt lat="43.92238" lon="5.22546">
        <ele>277.96</ele>
        <time>2009-05-19T08:44:51Z</time>
      </trkpt>
      <trkpt lat="43.9223" lon="5.22535">
        <ele>277.48</ele>
        <time>2009-05-19T08:45:15Z</time>
      </trkpt>
      <trkpt lat="43.92233" lon="5.22516">
        <ele>267.38</ele>
        <time>2009-05-19T08:47:14Z</time>
      </trkpt>
      <trkpt lat="43.92231" lon="5.22515">
        <ele>259.21</ele>
        <time>2009-05-19T08:48:14Z</time>
      </trkpt>
      <trkpt lat="43.92234" lon="5.22523">
        <ele>257.29</ele>
        <time>2009-05-19T08:50:53Z</time>
      </trkpt>
      <trkpt lat="43.92231" lon="5.22525">
        <ele>261.14</ele>
        <time>2009-05-19T08:51:08Z</time>
      </trkpt>
      <trkpt lat="43.92235" lon="5.22529">
        <ele>266.9</ele>
        <time>2009-05-19T08:51:22Z</time>
      </trkpt>
      <trkpt lat="43.92245" lon="5.22533">
        <ele>273.15</ele>
        <time>2009-05-19T08:52:06Z</time>
      </trkpt>
      <trkpt lat="43.92263" lon="5.22531">
        <ele>262.1</ele>
        <time>2009-05-19T08:52:20Z</time>
      </trkpt>
      <trkpt lat="43.92265" lon="5.22531">
        <ele>261.62</ele>
        <time>2009-05-19T08:52:22Z</time>
      </trkpt>
      <trkpt lat="43.92273" lon="5.22531">
        <ele>275.56</ele>
        <time>2009-05-19T08:52:38Z</time>
      </trkpt>
      <trkpt lat="43.92279" lon="5.22537">
        <ele>289.49</ele>
        <time>2009-05-19T08:52:49Z</time>
      </trkpt>
      <trkpt lat="43.92289" lon="5.22551">
        <ele>306.8</ele>
        <time>2009-05-19T08:53:05Z</time>
      </trkpt>
      <trkpt lat="43.9229" lon="5.22549">
        <ele>306.32</ele>
        <time>2009-05-19T08:53:06Z</time>
      </trkpt>
      <trkpt lat="43.92302" lon="5.2255">
        <ele>300.07</ele>
        <time>2009-05-19T08:53:15Z</time>
      </trkpt>
      <trkpt lat="43.92309" lon="5.22558">
        <ele>293.82</ele>
        <time>2009-05-19T08:53:33Z</time>
      </trkpt>
      <trkpt lat="43.92314" lon="5.22559">
        <ele>288.53</ele>
        <time>2009-05-19T08:53:47Z</time>
      </trkpt>
      <trkpt lat="43.92321" lon="5.22561">
        <ele>290.46</ele>
        <time>2009-05-19T08:53:58Z</time>
      </trkpt>
      <trkpt lat="43.92325" lon="5.22558">
        <ele>290.46</ele>
        <time>2009-05-19T08:54:00Z</time>
      </trkpt>
      <trkpt lat="43.92336" lon="5.22555">
        <ele>285.65</ele>
        <time>2009-05-19T08:54:13Z</time>
      </trkpt>
      <trkpt lat="43.92346" lon="5.22543">
        <ele>276.52</ele>
        <time>2009-05-19T08:54:25Z</time>
      </trkpt>
      <trkpt lat="43.92346" lon="5.2254">
        <ele>271.23</ele>
        <time>2009-05-19T08:54:32Z</time>
      </trkpt>
      <trkpt lat="43.92353" lon="5.22532">
        <ele>270.75</ele>
        <time>2009-05-19T08:54:44Z</time>
      </trkpt>
      <trkpt lat="43.9236" lon="5.22524">
        <ele>266.9</ele>
        <time>2009-05-19T08:54:58Z</time>
      </trkpt>
      <trkpt lat="43.92368" lon="5.22523">
        <ele>259.69</ele>
        <time>2009-05-19T08:55:09Z</time>
      </trkpt>
      <trkpt lat="43.92366" lon="5.2251">
        <ele>274.11</ele>
        <time>2009-05-19T08:55:19Z</time>
      </trkpt>
      <trkpt lat="43.92369" lon="5.22501">
        <ele>277.48</ele>
        <time>2009-05-19T08:55:31Z</time>
      </trkpt>
      <trkpt lat="43.9237" lon="5.22488">
        <ele>288.05</ele>
        <time>2009-05-19T08:55:45Z</time>
      </trkpt>
      <trkpt lat="43.92376" lon="5.22476">
        <ele>295.26</ele>
        <time>2009-05-19T08:56:02Z</time>
      </trkpt>
      <trkpt lat="43.92383" lon="5.22467">
        <ele>311.12</ele>
        <time>2009-05-19T08:56:19Z</time>
      </trkpt>
      <trkpt lat="43.92386" lon="5.22454">
        <ele>311.12</ele>
        <time>2009-05-19T08:56:55Z</time>
      </trkpt>
      <trkpt lat="43.92388" lon="5.22444">
        <ele>309.68</ele>
        <time>2009-05-19T08:57:09Z</time>
      </trkpt>
      <trkpt lat="43.92375" lon="5.22444">
        <ele>314.49</ele>
        <time>2009-05-19T08:57:25Z</time>
      </trkpt>
      <trkpt lat="43.92365" lon="5.22451">
        <ele>337.08</ele>
        <time>2009-05-19T08:57:39Z</time>
      </trkpt>
      <trkpt lat="43.92372" lon="5.22443">
        <ele>339.48</ele>
        <time>2009-05-19T08:57:53Z</time>
      </trkpt>
      <trkpt lat="43.92385" lon="5.22424">
        <ele>304.39</ele>
        <time>2009-05-19T08:58:11Z</time>
      </trkpt>
      <trkpt lat="43.92385" lon="5.22415">
        <ele>284.21</ele>
        <time>2009-05-19T08:58:32Z</time>
      </trkpt>
      <trkpt lat="43.92384" lon="5.22411">
        <ele>276.04</ele>
        <time>2009-05-19T08:58:50Z</time>
      </trkpt>
      <trkpt lat="43.92383" lon="5.22404">
        <ele>276.04</ele>
        <time>2009-05-19T08:59:10Z</time>
      </trkpt>
      <trkpt lat="43.9238" lon="5.22397">
        <ele>275.56</ele>
        <time>2009-05-19T08:59:21Z</time>
      </trkpt>
      <trkpt lat="43.92381" lon="5.2239">
        <ele>274.59</ele>
        <time>2009-05-19T08:59:36Z</time>
      </trkpt>
      <trkpt lat="43.92388" lon="5.22386">
        <ele>274.59</ele>
        <time>2009-05-19T08:59:59Z</time>
      </trkpt>
      <trkpt lat="43.92394" lon="5.22381">
        <ele>276.04</ele>
        <time>2009-05-19T09:00:15Z</time>
      </trkpt>
      <trkpt lat="43.92392" lon="5.2238">
        <ele>296.7</ele>
        <time>2009-05-19T09:00:38Z</time>
      </trkpt>
      <trkpt lat="43.92395" lon="5.22368">
        <ele>296.22</ele>
        <time>2009-05-19T09:00:57Z</time>
      </trkpt>
      <trkpt lat="43.92398" lon="5.22352">
        <ele>291.9</ele>
        <time>2009-05-19T09:01:26Z</time>
      </trkpt>
      <trkpt lat="43.924" lon="5.22345">
        <ele>288.05</ele>
        <time>2009-05-19T09:01:40Z</time>
      </trkpt>
      <trkpt lat="43.92401" lon="5.22344">
        <ele>285.65</ele>
        <time>2009-05-19T09:02:03Z</time>
      </trkpt>
      <trkpt lat="43.924" lon="5.22331">
        <ele>281.32</ele>
        <time>2009-05-19T09:02:25Z</time>
      </trkpt>
      <trkpt lat="43.924" lon="5.2232">
        <ele>281.32</ele>
        <time>2009-05-19T09:02:38Z</time>
      </trkpt>
      <trkpt lat="43.92416" lon="5.2231">
        <ele>277.96</ele>
        <time>2009-05-19T09:03:18Z</time>
      </trkpt>
      <trkpt lat="43.92424" lon="5.22306">
        <ele>279.4</ele>
        <time>2009-05-19T09:03:37Z</time>
      </trkpt>
      <trkpt lat="43.92446" lon="5.2231">
        <ele>281.8</ele>
        <time>2009-05-19T09:03:47Z</time>
      </trkpt>
      <trkpt lat="43.92455" lon="5.22304">
        <ele>290.94</ele>
        <time>2009-05-19T09:04:02Z</time>
      </trkpt>
      <trkpt lat="43.92482" lon="5.22294">
        <ele>299.59</ele>
        <time>2009-05-19T09:04:30Z</time>
      </trkpt>
      <trkpt lat="43.92492" lon="5.22288">
        <ele>302.95</ele>
        <time>2009-05-19T09:04:41Z</time>
      </trkpt>
      <trkpt lat="43.925" lon="5.22279">
        <ele>300.55</ele>
        <time>2009-05-19T09:05:03Z</time>
      </trkpt>
      <trkpt lat="43.92494" lon="5.22276">
        <ele>301.03</ele>
        <time>2009-05-19T09:05:09Z</time>
      </trkpt>
      <trkpt lat="43.92504" lon="5.22274">
        <ele>298.63</ele>
        <time>2009-05-19T09:05:19Z</time>
      </trkpt>
      <trkpt lat="43.92496" lon="5.22264">
        <ele>291.9</ele>
        <time>2009-05-19T09:05:32Z</time>
      </trkpt>
      <trkpt lat="43.92496" lon="5.22257">
        <ele>294.3</ele>
        <time>2009-05-19T09:05:45Z</time>
      </trkpt>
      <trkpt lat="43.92487" lon="5.22249">
        <ele>297.67</ele>
        <time>2009-05-19T09:06:02Z</time>
      </trkpt>
      <trkpt lat="43.92481" lon="5.22241">
        <ele>289.01</ele>
        <time>2009-05-19T09:06:18Z</time>
      </trkpt>
      <trkpt lat="43.92484" lon="5.22233">
        <ele>292.38</ele>
        <time>2009-05-19T09:06:31Z</time>
      </trkpt>
      <trkpt lat="43.92473" lon="5.2222">
        <ele>297.67</ele>
        <time>2009-05-19T09:06:44Z</time>
      </trkpt>
      <trkpt lat="43.92449" lon="5.22209">
        <ele>310.16</ele>
        <time>2009-05-19T09:06:58Z</time>
      </trkpt>
      <trkpt lat="43.92426" lon="5.22229">
        <ele>364.96</ele>
        <time>2009-05-19T09:07:20Z</time>
      </trkpt>
      <trkpt lat="43.92436" lon="5.22219">
        <ele>344.77</ele>
        <time>2009-05-19T09:07:44Z</time>
      </trkpt>
      <trkpt lat="43.9244" lon="5.22216">
        <ele>332.75</ele>
        <time>2009-05-19T09:07:49Z</time>
      </trkpt>
      <trkpt lat="43.92454" lon="5.22204">
        <ele>301.03</ele>
        <time>2009-05-19T09:08:05Z</time>
      </trkpt>
      <trkpt lat="43.92454" lon="5.22197">
        <ele>296.22</ele>
        <time>2009-05-19T09:08:17Z</time>
      </trkpt>
      <trkpt lat="43.92444" lon="5.22205">
        <ele>320.26</ele>
        <time>2009-05-19T09:08:40Z</time>
      </trkpt>
      <trkpt lat="43.92444" lon="5.22214">
        <ele>334.2</ele>
        <time>2009-05-19T09:09:34Z</time>
      </trkpt>
      <trkpt lat="43.9244" lon="5.22223">
        <ele>335.64</ele>
        <time>2009-05-19T09:11:07Z</time>
      </trkpt>
      <trkpt lat="43.92447" lon="5.22222">
        <ele>362.07</ele>
        <time>2009-05-19T09:11:43Z</time>
      </trkpt>
      <trkpt lat="43.92458" lon="5.22207">
        <ele>330.35</ele>
        <time>2009-05-19T09:11:57Z</time>
      </trkpt>
      <trkpt lat="43.92469" lon="5.22203">
        <ele>314.49</ele>
        <time>2009-05-19T09:12:12Z</time>
      </trkpt>
      <trkpt lat="43.92478" lon="5.22202">
        <ele>303.43</ele>
        <time>2009-05-19T09:12:26Z</time>
      </trkpt>
      <trkpt lat="43.92486" lon="5.22195">
        <ele>295.74</ele>
        <time>2009-05-19T09:12:39Z</time>
      </trkpt>
      <trkpt lat="43.92495" lon="5.22195">
        <ele>300.55</ele>
        <time>2009-05-19T09:12:58Z</time>
      </trkpt>
      <trkpt lat="43.92504" lon="5.22192">
        <ele>308.72</ele>
        <time>2009-05-19T09:13:16Z</time>
      </trkpt>
      <trkpt lat="43.92514" lon="5.22191">
        <ele>315.93</ele>
        <time>2009-05-19T09:13:33Z</time>
      </trkpt>
      <trkpt lat="43.92526" lon="5.22186">
        <ele>317.85</ele>
        <time>2009-05-19T09:13:49Z</time>
      </trkpt>
      <trkpt lat="43.92534" lon="5.22183">
        <ele>316.41</ele>
        <time>2009-05-19T09:14:04Z</time>
      </trkpt>
      <trkpt lat="43.9254" lon="5.22186">
        <ele>313.05</ele>
        <time>2009-05-19T09:14:21Z</time>
      </trkpt>
      <trkpt lat="43.92543" lon="5.22187">
        <ele>308.24</ele>
        <time>2009-05-19T09:14:39Z</time>
      </trkpt>
      <trkpt lat="43.92546" lon="5.22191">
        <ele>301.51</ele>
        <time>2009-05-19T09:15:05Z</time>
      </trkpt>
      <trkpt lat="43.9255" lon="5.22194">
        <ele>302.47</ele>
        <time>2009-05-19T09:15:18Z</time>
      </trkpt>
      <trkpt lat="43.92555" lon="5.22197">
        <ele>302.47</ele>
        <time>2009-05-19T09:15:26Z</time>
      </trkpt>
      <trkpt lat="43.92573" lon="5.22204">
        <ele>301.51</ele>
        <time>2009-05-19T09:15:43Z</time>
      </trkpt>
      <trkpt lat="43.9258" lon="5.22206">
        <ele>303.91</ele>
        <time>2009-05-19T09:15:53Z</time>
      </trkpt>
      <trkpt lat="43.92582" lon="5.22208">
        <ele>303.91</ele>
        <time>2009-05-19T09:15:55Z</time>
      </trkpt>
      <trkpt lat="43.92594" lon="5.2221">
        <ele>305.84</ele>
        <time>2009-05-19T09:16:10Z</time>
      </trkpt>
      <trkpt lat="43.92601" lon="5.22213">
        <ele>309.2</ele>
        <time>2009-05-19T09:16:24Z</time>
      </trkpt>
      <trkpt lat="43.92611" lon="5.22217">
        <ele>305.84</ele>
        <time>2009-05-19T09:16:38Z</time>
      </trkpt>
      <trkpt lat="43.92621" lon="5.2221">
        <ele>308.24</ele>
        <time>2009-05-19T09:16:55Z</time>
      </trkpt>
      <trkpt lat="43.92628" lon="5.22205">
        <ele>309.2</ele>
        <time>2009-05-19T09:17:08Z</time>
      </trkpt>
      <trkpt lat="43.92637" lon="5.22198">
        <ele>310.64</ele>
        <time>2009-05-19T09:17:23Z</time>
      </trkpt>
      <trkpt lat="43.92641" lon="5.22195">
        <ele>312.57</ele>
        <time>2009-05-19T09:17:36Z</time>
      </trkpt>
      <trkpt lat="43.9264" lon="5.222">
        <ele>323.14</ele>
        <time>2009-05-19T09:17:57Z</time>
      </trkpt>
      <trkpt lat="43.92644" lon="5.22193">
        <ele>319.78</ele>
        <time>2009-05-19T09:18:12Z</time>
      </trkpt>
      <trkpt lat="43.92646" lon="5.2219">
        <ele>319.78</ele>
        <time>2009-05-19T09:18:24Z</time>
      </trkpt>
      <trkpt lat="43.92655" lon="5.22183">
        <ele>318.33</ele>
        <time>2009-05-19T09:18:42Z</time>
      </trkpt>
      <trkpt lat="43.92662" lon="5.22174">
        <ele>318.33</ele>
        <time>2009-05-19T09:18:57Z</time>
      </trkpt>
      <trkpt lat="43.92664" lon="5.22168">
        <ele>324.1</ele>
        <time>2009-05-19T09:19:10Z</time>
      </trkpt>
      <trkpt lat="43.92669" lon="5.22164">
        <ele>324.1</ele>
        <time>2009-05-19T09:19:31Z</time>
      </trkpt>
      <trkpt lat="43.92674" lon="5.22157">
        <ele>327.95</ele>
        <time>2009-05-19T09:19:47Z</time>
      </trkpt>
      <trkpt lat="43.92679" lon="5.22146">
        <ele>327.47</ele>
        <time>2009-05-19T09:20:02Z</time>
      </trkpt>
      <trkpt lat="43.92685" lon="5.22139">
        <ele>328.91</ele>
        <time>2009-05-19T09:20:17Z</time>
      </trkpt>
      <trkpt lat="43.92689" lon="5.22133">
        <ele>326.5</ele>
        <time>2009-05-19T09:20:35Z</time>
      </trkpt>
      <trkpt lat="43.9269" lon="5.2213">
        <ele>335.16</ele>
        <time>2009-05-19T09:21:07Z</time>
      </trkpt>
      <trkpt lat="43.92693" lon="5.22133">
        <ele>331.31</ele>
        <time>2009-05-19T09:21:28Z</time>
      </trkpt>
      <trkpt lat="43.92699" lon="5.22125">
        <ele>325.06</ele>
        <time>2009-05-19T09:21:39Z</time>
      </trkpt>
      <trkpt lat="43.92705" lon="5.22125">
        <ele>326.02</ele>
        <time>2009-05-19T09:21:52Z</time>
      </trkpt>
      <trkpt lat="43.92713" lon="5.22128">
        <ele>329.87</ele>
        <time>2009-05-19T09:22:06Z</time>
      </trkpt>
      <trkpt lat="43.92721" lon="5.22129">
        <ele>322.66</ele>
        <time>2009-05-19T09:22:23Z</time>
      </trkpt>
      <trkpt lat="43.92729" lon="5.22129">
        <ele>323.62</ele>
        <time>2009-05-19T09:22:36Z</time>
      </trkpt>
      <trkpt lat="43.92737" lon="5.22121">
        <ele>326.5</ele>
        <time>2009-05-19T09:22:53Z</time>
      </trkpt>
      <trkpt lat="43.92734" lon="5.22127">
        <ele>346.69</ele>
        <time>2009-05-19T09:23:52Z</time>
      </trkpt>
      <trkpt lat="43.92733" lon="5.2212">
        <ele>337.08</ele>
        <time>2009-05-19T09:24:33Z</time>
      </trkpt>
      <trkpt lat="43.92732" lon="5.22132">
        <ele>342.37</ele>
        <time>2009-05-19T09:26:03Z</time>
      </trkpt>
      <trkpt lat="43.92739" lon="5.22127">
        <ele>329.39</ele>
        <time>2009-05-19T09:26:58Z</time>
      </trkpt>
      <trkpt lat="43.92741" lon="5.22138">
        <ele>348.62</ele>
        <time>2009-05-19T09:27:18Z</time>
      </trkpt>
      <trkpt lat="43.92735" lon="5.22136">
        <ele>326.02</ele>
        <time>2009-05-19T09:28:32Z</time>
      </trkpt>
      <trkpt lat="43.92736" lon="5.2214">
        <ele>318.33</ele>
        <time>2009-05-19T09:28:58Z</time>
      </trkpt>
      <trkpt lat="43.92734" lon="5.22142">
        <ele>311.6</ele>
        <time>2009-05-19T09:29:39Z</time>
      </trkpt>
      <trkpt lat="43.92731" lon="5.22146">
        <ele>319.78</ele>
        <time>2009-05-19T09:29:57Z</time>
      </trkpt>
      <trkpt lat="43.92734" lon="5.22151">
        <ele>318.81</ele>
        <time>2009-05-19T09:30:13Z</time>
      </trkpt>
      <trkpt lat="43.9273" lon="5.22151">
        <ele>314.97</ele>
        <time>2009-05-19T09:30:34Z</time>
      </trkpt>
      <trkpt lat="43.9272" lon="5.22162">
        <ele>318.81</ele>
        <time>2009-05-19T09:31:13Z</time>
      </trkpt>
      <trkpt lat="43.92709" lon="5.22166">
        <ele>325.54</ele>
        <time>2009-05-19T09:31:24Z</time>
      </trkpt>
      <trkpt lat="43.92702" lon="5.22162">
        <ele>328.43</ele>
        <time>2009-05-19T09:31:36Z</time>
      </trkpt>
      <trkpt lat="43.92712" lon="5.22166">
        <ele>287.09</ele>
        <time>2009-05-19T09:32:07Z</time>
      </trkpt>
      <trkpt lat="43.92711" lon="5.22155">
        <ele>285.17</ele>
        <time>2009-05-19T09:32:14Z</time>
      </trkpt>
      <trkpt lat="43.92721" lon="5.22156">
        <ele>286.13</ele>
        <time>2009-05-19T09:32:29Z</time>
      </trkpt>
      <trkpt lat="43.92723" lon="5.2217">
        <ele>326.99</ele>
        <time>2009-05-19T09:32:52Z</time>
      </trkpt>
      <trkpt lat="43.92732" lon="5.22181">
        <ele>326.99</ele>
        <time>2009-05-19T09:33:18Z</time>
      </trkpt>
      <trkpt lat="43.92742" lon="5.22181">
        <ele>325.54</ele>
        <time>2009-05-19T09:33:37Z</time>
      </trkpt>
      <trkpt lat="43.92742" lon="5.22182">
        <ele>328.91</ele>
        <time>2009-05-19T09:33:40Z</time>
      </trkpt>
      <trkpt lat="43.92745" lon="5.22189">
        <ele>357.75</ele>
        <time>2009-05-19T09:33:56Z</time>
      </trkpt>
      <trkpt lat="43.92749" lon="5.22202">
        <ele>352.46</ele>
        <time>2009-05-19T09:34:49Z</time>
      </trkpt>
      <trkpt lat="43.92742" lon="5.22203">
        <ele>370.73</ele>
        <time>2009-05-19T09:35:05Z</time>
      </trkpt>
      <trkpt lat="43.92752" lon="5.22209">
        <ele>353.42</ele>
        <time>2009-05-19T09:35:26Z</time>
      </trkpt>
      <trkpt lat="43.92757" lon="5.22212">
        <ele>361.11</ele>
        <time>2009-05-19T09:35:31Z</time>
      </trkpt>
      <trkpt lat="43.9276" lon="5.22214">
        <ele>383.22</ele>
        <time>2009-05-19T09:35:42Z</time>
      </trkpt>
      <trkpt lat="43.92765" lon="5.22212">
        <ele>395.72</ele>
        <time>2009-05-19T09:36:00Z</time>
      </trkpt>
      <trkpt lat="43.9277" lon="5.2222">
        <ele>392.84</ele>
        <time>2009-05-19T09:36:17Z</time>
      </trkpt>
      <trkpt lat="43.92763" lon="5.2223">
        <ele>373.13</ele>
        <time>2009-05-19T09:36:33Z</time>
      </trkpt>
      <trkpt lat="43.92767" lon="5.22237">
        <ele>339.48</ele>
        <time>2009-05-19T09:36:51Z</time>
      </trkpt>
      <trkpt lat="43.92777" lon="5.22244">
        <ele>326.02</ele>
        <time>2009-05-19T09:37:04Z</time>
      </trkpt>
      <trkpt lat="43.92785" lon="5.22248">
        <ele>321.7</ele>
        <time>2009-05-19T09:37:14Z</time>
      </trkpt>
      <trkpt lat="43.9281" lon="5.22249">
        <ele>306.8</ele>
        <time>2009-05-19T09:38:12Z</time>
      </trkpt>
      <trkpt lat="43.92815" lon="5.22252">
        <ele>312.09</ele>
        <time>2009-05-19T09:38:27Z</time>
      </trkpt>
      <trkpt lat="43.92822" lon="5.22251">
        <ele>314.49</ele>
        <time>2009-05-19T09:38:42Z</time>
      </trkpt>
      <trkpt lat="43.92835" lon="5.22254">
        <ele>315.45</ele>
        <time>2009-05-19T09:39:03Z</time>
      </trkpt>
      <trkpt lat="43.92845" lon="5.22264">
        <ele>310.64</ele>
        <time>2009-05-19T09:39:13Z</time>
      </trkpt>
      <trkpt lat="43.92849" lon="5.2227">
        <ele>313.53</ele>
        <time>2009-05-19T09:39:23Z</time>
      </trkpt>
      <trkpt lat="43.92857" lon="5.22266">
        <ele>314.97</ele>
        <time>2009-05-19T09:39:38Z</time>
      </trkpt>
      <trkpt lat="43.92864" lon="5.22259">
        <ele>312.57</ele>
        <time>2009-05-19T09:39:52Z</time>
      </trkpt>
      <trkpt lat="43.9287" lon="5.22257">
        <ele>306.8</ele>
        <time>2009-05-19T09:40:06Z</time>
      </trkpt>
      <trkpt lat="43.92871" lon="5.22253">
        <ele>307.28</ele>
        <time>2009-05-19T09:40:09Z</time>
      </trkpt>
      <trkpt lat="43.92877" lon="5.22233">
        <ele>314.01</ele>
        <time>2009-05-19T09:40:28Z</time>
      </trkpt>
      <trkpt lat="43.92885" lon="5.22226">
        <ele>314.97</ele>
        <time>2009-05-19T09:40:39Z</time>
      </trkpt>
      <trkpt lat="43.92896" lon="5.22218">
        <ele>317.37</ele>
        <time>2009-05-19T09:40:53Z</time>
      </trkpt>
      <trkpt lat="43.929" lon="5.22216">
        <ele>318.33</ele>
        <time>2009-05-19T09:40:59Z</time>
      </trkpt>
      <trkpt lat="43.92905" lon="5.22211">
        <ele>315.93</ele>
        <time>2009-05-19T09:41:14Z</time>
      </trkpt>
      <trkpt lat="43.92908" lon="5.22202">
        <ele>316.41</ele>
        <time>2009-05-19T09:41:26Z</time>
      </trkpt>
      <trkpt lat="43.92911" lon="5.22196">
        <ele>316.89</ele>
        <time>2009-05-19T09:41:48Z</time>
      </trkpt>
      <trkpt lat="43.92918" lon="5.22187">
        <ele>323.14</ele>
        <time>2009-05-19T09:42:02Z</time>
      </trkpt>
      <trkpt lat="43.9293" lon="5.22186">
        <ele>322.66</ele>
        <time>2009-05-19T09:42:13Z</time>
      </trkpt>
      <trkpt lat="43.92935" lon="5.22188">
        <ele>325.54</ele>
        <time>2009-05-19T09:42:19Z</time>
      </trkpt>
      <trkpt lat="43.92942" lon="5.22194">
        <ele>324.1</ele>
        <time>2009-05-19T09:42:28Z</time>
      </trkpt>
      <trkpt lat="43.92954" lon="5.22197">
        <ele>326.99</ele>
        <time>2009-05-19T09:42:43Z</time>
      </trkpt>
      <trkpt lat="43.92963" lon="5.22206">
        <ele>332.75</ele>
        <time>2009-05-19T09:42:57Z</time>
      </trkpt>
      <trkpt lat="43.92969" lon="5.22212">
        <ele>334.68</ele>
        <time>2009-05-19T09:43:10Z</time>
      </trkpt>
      <trkpt lat="43.92991" lon="5.22217">
        <ele>331.31</ele>
        <time>2009-05-19T09:43:38Z</time>
      </trkpt>
      <trkpt lat="43.93051" lon="5.22241">
        <ele>386.11</ele>
        <time>2009-05-19T09:44:45Z</time>
      </trkpt>
      <trkpt lat="43.9306" lon="5.22254">
        <ele>383.22</ele>
        <time>2009-05-19T09:45:33Z</time>
      </trkpt>
      <trkpt lat="43.9307" lon="5.22251">
        <ele>339.96</ele>
        <time>2009-05-19T09:45:49Z</time>
      </trkpt>
      <trkpt lat="43.93075" lon="5.22255">
        <ele>338.04</ele>
        <time>2009-05-19T09:45:59Z</time>
      </trkpt>
      <trkpt lat="43.93082" lon="5.22257">
        <ele>336.12</ele>
        <time>2009-05-19T09:46:09Z</time>
      </trkpt>
      <trkpt lat="43.93085" lon="5.22257">
        <ele>334.68</ele>
        <time>2009-05-19T09:46:12Z</time>
      </trkpt>
      <trkpt lat="43.93089" lon="5.22256">
        <ele>334.2</ele>
        <time>2009-05-19T09:46:16Z</time>
      </trkpt>
      <trkpt lat="43.93098" lon="5.22255">
        <ele>332.75</ele>
        <time>2009-05-19T09:46:28Z</time>
      </trkpt>
      <trkpt lat="43.93106" lon="5.22251">
        <ele>329.87</ele>
        <time>2009-05-19T09:46:38Z</time>
      </trkpt>
      <trkpt lat="43.93111" lon="5.22244">
        <ele>330.35</ele>
        <time>2009-05-19T09:46:48Z</time>
      </trkpt>
      <trkpt lat="43.9311" lon="5.22237">
        <ele>332.27</ele>
        <time>2009-05-19T09:46:59Z</time>
      </trkpt>
      <trkpt lat="43.93107" lon="5.22225">
        <ele>338.04</ele>
        <time>2009-05-19T09:47:11Z</time>
      </trkpt>
      <trkpt lat="43.93105" lon="5.22216">
        <ele>339.48</ele>
        <time>2009-05-19T09:47:21Z</time>
      </trkpt>
      <trkpt lat="43.9311" lon="5.22189">
        <ele>340.92</ele>
        <time>2009-05-19T09:47:45Z</time>
      </trkpt>
      <trkpt lat="43.93113" lon="5.2217">
        <ele>358.71</ele>
        <time>2009-05-19T09:47:59Z</time>
      </trkpt>
      <trkpt lat="43.93112" lon="5.22162">
        <ele>345.25</ele>
        <time>2009-05-19T09:48:10Z</time>
      </trkpt>
      <trkpt lat="43.93114" lon="5.22166">
        <ele>331.79</ele>
        <time>2009-05-19T09:48:20Z</time>
      </trkpt>
      <trkpt lat="43.9311" lon="5.22162">
        <ele>332.75</ele>
        <time>2009-05-19T09:48:27Z</time>
      </trkpt>
      <trkpt lat="43.93106" lon="5.2215">
        <ele>332.75</ele>
        <time>2009-05-19T09:48:39Z</time>
      </trkpt>
      <trkpt lat="43.93107" lon="5.22132">
        <ele>334.68</ele>
        <time>2009-05-19T09:48:55Z</time>
      </trkpt>
      <trkpt lat="43.9311" lon="5.22116">
        <ele>327.95</ele>
        <time>2009-05-19T09:49:08Z</time>
      </trkpt>
      <trkpt lat="43.93104" lon="5.22102">
        <ele>340.44</ele>
        <time>2009-05-19T09:49:28Z</time>
      </trkpt>
      <trkpt lat="43.93104" lon="5.22086">
        <ele>342.37</ele>
        <time>2009-05-19T09:49:44Z</time>
      </trkpt>
      <trkpt lat="43.93107" lon="5.22068">
        <ele>335.16</ele>
        <time>2009-05-19T09:49:56Z</time>
      </trkpt>
      <trkpt lat="43.93108" lon="5.22054">
        <ele>329.39</ele>
        <time>2009-05-19T09:50:12Z</time>
      </trkpt>
      <trkpt lat="43.93112" lon="5.22047">
        <ele>339.48</ele>
        <time>2009-05-19T09:50:30Z</time>
      </trkpt>
      <trkpt lat="43.93126" lon="5.22046">
        <ele>347.65</ele>
        <time>2009-05-19T09:50:48Z</time>
      </trkpt>
      <trkpt lat="43.93131" lon="5.22047">
        <ele>353.9</ele>
        <time>2009-05-19T09:50:57Z</time>
      </trkpt>
      <trkpt lat="43.9314" lon="5.2205">
        <ele>351.98</ele>
        <time>2009-05-19T09:51:10Z</time>
      </trkpt>
      <trkpt lat="43.93149" lon="5.22054">
        <ele>353.9</ele>
        <time>2009-05-19T09:51:23Z</time>
      </trkpt>
      <trkpt lat="43.9316" lon="5.22066">
        <ele>360.15</ele>
        <time>2009-05-19T09:51:39Z</time>
      </trkpt>
      <trkpt lat="43.93167" lon="5.22072">
        <ele>358.23</ele>
        <time>2009-05-19T09:51:51Z</time>
      </trkpt>
      <trkpt lat="43.93174" lon="5.22077">
        <ele>356.79</ele>
        <time>2009-05-19T09:52:02Z</time>
      </trkpt>
      <trkpt lat="43.93179" lon="5.22096">
        <ele>377.45</ele>
        <time>2009-05-19T09:52:21Z</time>
      </trkpt>
      <trkpt lat="43.93183" lon="5.22113">
        <ele>377.94</ele>
        <time>2009-05-19T09:52:45Z</time>
      </trkpt>
      <trkpt lat="43.93185" lon="5.2213">
        <ele>393.8</ele>
        <time>2009-05-19T09:52:59Z</time>
      </trkpt>
      <trkpt lat="43.93204" lon="5.22143">
        <ele>373.13</ele>
        <time>2009-05-19T09:53:51Z</time>
      </trkpt>
      <trkpt lat="43.9321" lon="5.22142">
        <ele>366.4</ele>
        <time>2009-05-19T09:54:06Z</time>
      </trkpt>
      <trkpt lat="43.93213" lon="5.2214">
        <ele>366.4</ele>
        <time>2009-05-19T09:54:26Z</time>
      </trkpt>
      <trkpt lat="43.93222" lon="5.22136">
        <ele>360.15</ele>
        <time>2009-05-19T09:54:38Z</time>
      </trkpt>
      <trkpt lat="43.93227" lon="5.22128">
        <ele>359.67</ele>
        <time>2009-05-19T09:54:52Z</time>
      </trkpt>
      <trkpt lat="43.93232" lon="5.22118">
        <ele>365.92</ele>
        <time>2009-05-19T09:55:04Z</time>
      </trkpt>
      <trkpt lat="43.93236" lon="5.22113">
        <ele>369.76</ele>
        <time>2009-05-19T09:55:14Z</time>
      </trkpt>
      <trkpt lat="43.93247" lon="5.22106">
        <ele>358.71</ele>
        <time>2009-05-19T09:55:27Z</time>
      </trkpt>
      <trkpt lat="43.93256" lon="5.22096">
        <ele>363.04</ele>
        <time>2009-05-19T09:55:49Z</time>
      </trkpt>
      <trkpt lat="43.93262" lon="5.22094">
        <ele>368.8</ele>
        <time>2009-05-19T09:55:59Z</time>
      </trkpt>
      <trkpt lat="43.93274" lon="5.22097">
        <ele>375.05</ele>
        <time>2009-05-19T09:56:11Z</time>
      </trkpt>
      <trkpt lat="43.93285" lon="5.22099">
        <ele>377.94</ele>
        <time>2009-05-19T09:56:23Z</time>
      </trkpt>
      <trkpt lat="43.93293" lon="5.22095">
        <ele>376.97</ele>
        <time>2009-05-19T09:56:38Z</time>
      </trkpt>
      <trkpt lat="43.93299" lon="5.22097">
        <ele>377.94</ele>
        <time>2009-05-19T09:56:49Z</time>
      </trkpt>
      <trkpt lat="43.93316" lon="5.22101">
        <ele>365.92</ele>
        <time>2009-05-19T09:57:03Z</time>
      </trkpt>
      <trkpt lat="43.93324" lon="5.22107">
        <ele>366.88</ele>
        <time>2009-05-19T09:57:18Z</time>
      </trkpt>
      <trkpt lat="43.9333" lon="5.22121">
        <ele>369.28</ele>
        <time>2009-05-19T09:57:34Z</time>
      </trkpt>
      <trkpt lat="43.93337" lon="5.22135">
        <ele>389.95</ele>
        <time>2009-05-19T09:57:52Z</time>
      </trkpt>
      <trkpt lat="43.93339" lon="5.22137">
        <ele>400.05</ele>
        <time>2009-05-19T09:58:15Z</time>
      </trkpt>
      <trkpt lat="43.93338" lon="5.2214">
        <ele>403.41</ele>
        <time>2009-05-19T09:58:47Z</time>
      </trkpt>
      <trkpt lat="43.93335" lon="5.22146">
        <ele>410.14</ele>
        <time>2009-05-19T09:58:56Z</time>
      </trkpt>
      <trkpt lat="43.93342" lon="5.22143">
        <ele>399.57</ele>
        <time>2009-05-19T09:59:05Z</time>
      </trkpt>
      <trkpt lat="43.93337" lon="5.22149">
        <ele>410.14</ele>
        <time>2009-05-19T10:00:07Z</time>
      </trkpt>
      <trkpt lat="43.93331" lon="5.22151">
        <ele>413.02</ele>
        <time>2009-05-19T10:00:21Z</time>
      </trkpt>
      <trkpt lat="43.93334" lon="5.2214">
        <ele>412.54</ele>
        <time>2009-05-19T10:00:39Z</time>
      </trkpt>
      <trkpt lat="43.93336" lon="5.2214">
        <ele>380.34</ele>
        <time>2009-05-19T10:01:01Z</time>
      </trkpt>
      <trkpt lat="43.93341" lon="5.22129">
        <ele>368.32</ele>
        <time>2009-05-19T10:01:28Z</time>
      </trkpt>
      <trkpt lat="43.93338" lon="5.2214">
        <ele>387.55</ele>
        <time>2009-05-19T10:02:07Z</time>
      </trkpt>
      <trkpt lat="43.93345" lon="5.22139">
        <ele>381.78</ele>
        <time>2009-05-19T10:02:28Z</time>
      </trkpt>
      <trkpt lat="43.93348" lon="5.22141">
        <ele>382.26</ele>
        <time>2009-05-19T10:02:49Z</time>
      </trkpt>
      <trkpt lat="43.93348" lon="5.22132">
        <ele>381.78</ele>
        <time>2009-05-19T10:03:04Z</time>
      </trkpt>
      <trkpt lat="43.93362" lon="5.22129">
        <ele>378.42</ele>
        <time>2009-05-19T10:03:20Z</time>
      </trkpt>
      <trkpt lat="43.93373" lon="5.22125">
        <ele>380.34</ele>
        <time>2009-05-19T10:03:36Z</time>
      </trkpt>
      <trkpt lat="43.93374" lon="5.22123">
        <ele>381.78</ele>
        <time>2009-05-19T10:03:52Z</time>
      </trkpt>
      <trkpt lat="43.93373" lon="5.22113">
        <ele>384.18</ele>
        <time>2009-05-19T10:04:07Z</time>
      </trkpt>
      <trkpt lat="43.93374" lon="5.22104">
        <ele>385.63</ele>
        <time>2009-05-19T10:04:24Z</time>
      </trkpt>
      <trkpt lat="43.93376" lon="5.221">
        <ele>386.11</ele>
        <time>2009-05-19T10:04:30Z</time>
      </trkpt>
      <trkpt lat="43.93384" lon="5.22098">
        <ele>386.11</ele>
        <time>2009-05-19T10:04:46Z</time>
      </trkpt>
      <trkpt lat="43.93389" lon="5.22093">
        <ele>391.39</ele>
        <time>2009-05-19T10:05:03Z</time>
      </trkpt>
      <trkpt lat="43.93394" lon="5.22087">
        <ele>394.28</ele>
        <time>2009-05-19T10:05:20Z</time>
      </trkpt>
      <trkpt lat="43.93382" lon="5.22071">
        <ele>398.12</ele>
        <time>2009-05-19T10:05:41Z</time>
      </trkpt>
      <trkpt lat="43.93377" lon="5.22049">
        <ele>402.93</ele>
        <time>2009-05-19T10:06:03Z</time>
      </trkpt>
      <trkpt lat="43.93369" lon="5.22033">
        <ele>398.12</ele>
        <time>2009-05-19T10:06:22Z</time>
      </trkpt>
      <trkpt lat="43.93355" lon="5.22018">
        <ele>403.41</ele>
        <time>2009-05-19T10:06:43Z</time>
      </trkpt>
      <trkpt lat="43.9334" lon="5.22015">
        <ele>408.7</ele>
        <time>2009-05-19T10:07:00Z</time>
      </trkpt>
      <trkpt lat="43.93327" lon="5.22012">
        <ele>409.18</ele>
        <time>2009-05-19T10:07:15Z</time>
      </trkpt>
      <trkpt lat="43.93322" lon="5.22">
        <ele>408.22</ele>
        <time>2009-05-19T10:07:33Z</time>
      </trkpt>
      <trkpt lat="43.93309" lon="5.2199">
        <ele>407.74</ele>
        <time>2009-05-19T10:07:50Z</time>
      </trkpt>
      <trkpt lat="43.93293" lon="5.21994">
        <ele>410.62</ele>
        <time>2009-05-19T10:08:06Z</time>
      </trkpt>
      <trkpt lat="43.93281" lon="5.21994">
        <ele>411.58</ele>
        <time>2009-05-19T10:08:20Z</time>
      </trkpt>
      <trkpt lat="43.93262" lon="5.21996">
        <ele>413.02</ele>
        <time>2009-05-19T10:08:39Z</time>
      </trkpt>
      <trkpt lat="43.93246" lon="5.22">
        <ele>413.5</ele>
        <time>2009-05-19T10:08:56Z</time>
      </trkpt>
      <trkpt lat="43.93231" lon="5.21994">
        <ele>416.39</ele>
        <time>2009-05-19T10:09:15Z</time>
      </trkpt>
      <trkpt lat="43.93224" lon="5.21989">
        <ele>416.39</ele>
        <time>2009-05-19T10:09:23Z</time>
      </trkpt>
      <trkpt lat="43.93217" lon="5.21983">
        <ele>416.39</ele>
        <time>2009-05-19T10:09:31Z</time>
      </trkpt>
      <trkpt lat="43.932" lon="5.21969">
        <ele>416.39</ele>
        <time>2009-05-19T10:09:50Z</time>
      </trkpt>
      <trkpt lat="43.93189" lon="5.21965">
        <ele>419.75</ele>
        <time>2009-05-19T10:10:08Z</time>
      </trkpt>
      <trkpt lat="43.93183" lon="5.2196">
        <ele>416.87</ele>
        <time>2009-05-19T10:10:27Z</time>
      </trkpt>
      <trkpt lat="43.93181" lon="5.21953">
        <ele>415.91</ele>
        <time>2009-05-19T10:10:33Z</time>
      </trkpt>
      <trkpt lat="43.93163" lon="5.2193">
        <ele>413.98</ele>
        <time>2009-05-19T10:10:57Z</time>
      </trkpt>
      <trkpt lat="43.93152" lon="5.21923">
        <ele>416.39</ele>
        <time>2009-05-19T10:11:09Z</time>
      </trkpt>
      <trkpt lat="43.93135" lon="5.2191">
        <ele>419.75</ele>
        <time>2009-05-19T10:11:27Z</time>
      </trkpt>
      <trkpt lat="43.93125" lon="5.21907">
        <ele>419.75</ele>
        <time>2009-05-19T10:11:36Z</time>
      </trkpt>
      <trkpt lat="43.9312" lon="5.21908">
        <ele>418.79</ele>
        <time>2009-05-19T10:11:40Z</time>
      </trkpt>
      <trkpt lat="43.931" lon="5.2192">
        <ele>418.79</ele>
        <time>2009-05-19T10:11:59Z</time>
      </trkpt>
      <trkpt lat="43.93098" lon="5.21924">
        <ele>422.64</ele>
        <time>2009-05-19T10:12:16Z</time>
      </trkpt>
      <trkpt lat="43.93098" lon="5.21925">
        <ele>425.52</ele>
        <time>2009-05-19T10:12:42Z</time>
      </trkpt>
      <trkpt lat="43.93096" lon="5.21923">
        <ele>419.75</ele>
        <time>2009-05-19T10:13:09Z</time>
      </trkpt>
      <trkpt lat="43.93094" lon="5.21921">
        <ele>415.43</ele>
        <time>2009-05-19T10:13:29Z</time>
      </trkpt>
      <trkpt lat="43.9309" lon="5.21923">
        <ele>403.41</ele>
        <time>2009-05-19T10:14:23Z</time>
      </trkpt>
      <trkpt lat="43.93087" lon="5.21931">
        <ele>416.87</ele>
        <time>2009-05-19T10:14:51Z</time>
      </trkpt>
      <trkpt lat="43.93068" lon="5.21941">
        <ele>419.75</ele>
        <time>2009-05-19T10:15:12Z</time>
      </trkpt>
      <trkpt lat="43.93054" lon="5.21954">
        <ele>418.79</ele>
        <time>2009-05-19T10:15:31Z</time>
      </trkpt>
      <trkpt lat="43.93041" lon="5.21971">
        <ele>422.16</ele>
        <time>2009-05-19T10:15:53Z</time>
      </trkpt>
      <trkpt lat="43.93033" lon="5.2198">
        <ele>420.71</ele>
        <time>2009-05-19T10:16:10Z</time>
      </trkpt>
      <trkpt lat="43.93031" lon="5.21981">
        <ele>420.23</ele>
        <time>2009-05-19T10:16:13Z</time>
      </trkpt>
      <trkpt lat="43.93029" lon="5.21981">
        <ele>420.23</ele>
        <time>2009-05-19T10:16:15Z</time>
      </trkpt>
      <trkpt lat="43.93012" lon="5.21967">
        <ele>417.83</ele>
        <time>2009-05-19T10:16:36Z</time>
      </trkpt>
      <trkpt lat="43.93011" lon="5.21965">
        <ele>417.83</ele>
        <time>2009-05-19T10:16:38Z</time>
      </trkpt>
      <trkpt lat="43.93006" lon="5.21941">
        <ele>421.68</ele>
        <time>2009-05-19T10:16:57Z</time>
      </trkpt>
      <trkpt lat="43.93009" lon="5.21919">
        <ele>424.08</ele>
        <time>2009-05-19T10:17:15Z</time>
      </trkpt>
      <trkpt lat="43.93013" lon="5.21895">
        <ele>425.52</ele>
        <time>2009-05-19T10:17:34Z</time>
      </trkpt>
      <trkpt lat="43.93017" lon="5.21871">
        <ele>427.44</ele>
        <time>2009-05-19T10:17:53Z</time>
      </trkpt>
      <trkpt lat="43.93023" lon="5.21847">
        <ele>427.92</ele>
        <time>2009-05-19T10:18:12Z</time>
      </trkpt>
      <trkpt lat="43.9303" lon="5.21831">
        <ele>425.52</ele>
        <time>2009-05-19T10:18:24Z</time>
      </trkpt>
      <trkpt lat="43.9304" lon="5.21812">
        <ele>424.56</ele>
        <time>2009-05-19T10:18:43Z</time>
      </trkpt>
      <trkpt lat="43.93046" lon="5.21792">
        <ele>429.37</ele>
        <time>2009-05-19T10:19:03Z</time>
      </trkpt>
      <trkpt lat="43.93049" lon="5.21766">
        <ele>432.25</ele>
        <time>2009-05-19T10:19:23Z</time>
      </trkpt>
      <trkpt lat="43.93051" lon="5.21733">
        <ele>433.69</ele>
        <time>2009-05-19T10:19:48Z</time>
      </trkpt>
      <trkpt lat="43.93049" lon="5.21708">
        <ele>434.17</ele>
        <time>2009-05-19T10:20:07Z</time>
      </trkpt>
      <trkpt lat="43.93045" lon="5.21682">
        <ele>433.69</ele>
        <time>2009-05-19T10:20:28Z</time>
      </trkpt>
      <trkpt lat="43.93044" lon="5.21676">
        <ele>433.69</ele>
        <time>2009-05-19T10:20:33Z</time>
      </trkpt>
      <trkpt lat="43.93037" lon="5.21654">
        <ele>434.17</ele>
        <time>2009-05-19T10:20:51Z</time>
      </trkpt>
      <trkpt lat="43.9303" lon="5.2163">
        <ele>437.54</ele>
        <time>2009-05-19T10:21:13Z</time>
      </trkpt>
      <trkpt lat="43.93025" lon="5.21608">
        <ele>437.06</ele>
        <time>2009-05-19T10:21:33Z</time>
      </trkpt>
      <trkpt lat="43.93018" lon="5.21584">
        <ele>438.5</ele>
        <time>2009-05-19T10:21:53Z</time>
      </trkpt>
      <trkpt lat="43.9301" lon="5.21561">
        <ele>441.38</ele>
        <time>2009-05-19T10:22:14Z</time>
      </trkpt>
      <trkpt lat="43.93008" lon="5.2154">
        <ele>441.38</ele>
        <time>2009-05-19T10:22:33Z</time>
      </trkpt>
      <trkpt lat="43.93011" lon="5.21519">
        <ele>445.71</ele>
        <time>2009-05-19T10:22:52Z</time>
      </trkpt>
      <trkpt lat="43.93019" lon="5.21502">
        <ele>448.59</ele>
        <time>2009-05-19T10:23:11Z</time>
      </trkpt>
      <trkpt lat="43.93031" lon="5.21484">
        <ele>453.4</ele>
        <time>2009-05-19T10:23:31Z</time>
      </trkpt>
      <trkpt lat="43.93039" lon="5.21468">
        <ele>453.4</ele>
        <time>2009-05-19T10:23:47Z</time>
      </trkpt>
      <trkpt lat="43.93045" lon="5.21439">
        <ele>453.4</ele>
        <time>2009-05-19T10:24:08Z</time>
      </trkpt>
      <trkpt lat="43.93045" lon="5.2141">
        <ele>454.36</ele>
        <time>2009-05-19T10:24:27Z</time>
      </trkpt>
      <trkpt lat="43.93045" lon="5.21406">
        <ele>454.84</ele>
        <time>2009-05-19T10:24:30Z</time>
      </trkpt>
      <trkpt lat="43.93044" lon="5.214">
        <ele>454.84</ele>
        <time>2009-05-19T10:24:34Z</time>
      </trkpt>
      <trkpt lat="43.93042" lon="5.2137">
        <ele>454.84</ele>
        <time>2009-05-19T10:24:51Z</time>
      </trkpt>
      <trkpt lat="43.93043" lon="5.21339">
        <ele>454.36</ele>
        <time>2009-05-19T10:25:11Z</time>
      </trkpt>
      <trkpt lat="43.93049" lon="5.21321">
        <ele>453.4</ele>
        <time>2009-05-19T10:25:24Z</time>
      </trkpt>
      <trkpt lat="43.93071" lon="5.21307">
        <ele>449.55</ele>
        <time>2009-05-19T10:25:43Z</time>
      </trkpt>
      <trkpt lat="43.93093" lon="5.21304">
        <ele>450.03</ele>
        <time>2009-05-19T10:26:01Z</time>
      </trkpt>
      <trkpt lat="43.93103" lon="5.21299">
        <ele>449.07</ele>
        <time>2009-05-19T10:26:12Z</time>
      </trkpt>
      <trkpt lat="43.9312" lon="5.21299">
        <ele>451.48</ele>
        <time>2009-05-19T10:26:29Z</time>
      </trkpt>
      <trkpt lat="43.9313" lon="5.21302">
        <ele>455.8</ele>
        <time>2009-05-19T10:26:40Z</time>
      </trkpt>
      <trkpt lat="43.93143" lon="5.21309">
        <ele>458.69</ele>
        <time>2009-05-19T10:26:54Z</time>
      </trkpt>
      <trkpt lat="43.93156" lon="5.21314">
        <ele>457.24</ele>
        <time>2009-05-19T10:27:08Z</time>
      </trkpt>
      <trkpt lat="43.93159" lon="5.21313">
        <ele>455.8</ele>
        <time>2009-05-19T10:27:11Z</time>
      </trkpt>
      <trkpt lat="43.9317" lon="5.21311">
        <ele>460.13</ele>
        <time>2009-05-19T10:27:28Z</time>
      </trkpt>
      <trkpt lat="43.93189" lon="5.21315">
        <ele>460.13</ele>
        <time>2009-05-19T10:27:45Z</time>
      </trkpt>
      <trkpt lat="43.93202" lon="5.21321">
        <ele>459.65</ele>
        <time>2009-05-19T10:28:00Z</time>
      </trkpt>
      <trkpt lat="43.93217" lon="5.21323">
        <ele>461.09</ele>
        <time>2009-05-19T10:28:16Z</time>
      </trkpt>
      <trkpt lat="43.93226" lon="5.2133">
        <ele>462.53</ele>
        <time>2009-05-19T10:28:31Z</time>
      </trkpt>
      <trkpt lat="43.93234" lon="5.21343">
        <ele>465.42</ele>
        <time>2009-05-19T10:28:48Z</time>
      </trkpt>
      <trkpt lat="43.93246" lon="5.21347">
        <ele>468.78</ele>
        <time>2009-05-19T10:29:05Z</time>
      </trkpt>
      <trkpt lat="43.93256" lon="5.21352">
        <ele>465.42</ele>
        <time>2009-05-19T10:29:22Z</time>
      </trkpt>
      <trkpt lat="43.93263" lon="5.21354">
        <ele>468.3</ele>
        <time>2009-05-19T10:29:38Z</time>
      </trkpt>
      <trkpt lat="43.93274" lon="5.21359">
        <ele>471.66</ele>
        <time>2009-05-19T10:29:56Z</time>
      </trkpt>
      <trkpt lat="43.93284" lon="5.21365">
        <ele>477.43</ele>
        <time>2009-05-19T10:30:14Z</time>
      </trkpt>
      <trkpt lat="43.93292" lon="5.21371">
        <ele>476.95</ele>
        <time>2009-05-19T10:30:29Z</time>
      </trkpt>
      <trkpt lat="43.93301" lon="5.21378">
        <ele>478.87</ele>
        <time>2009-05-19T10:30:45Z</time>
      </trkpt>
      <trkpt lat="43.93309" lon="5.21385">
        <ele>482.72</ele>
        <time>2009-05-19T10:31:01Z</time>
      </trkpt>
      <trkpt lat="43.93317" lon="5.21394">
        <ele>486.56</ele>
        <time>2009-05-19T10:31:17Z</time>
      </trkpt>
      <trkpt lat="43.93324" lon="5.21405">
        <ele>489.93</ele>
        <time>2009-05-19T10:31:32Z</time>
      </trkpt>
      <trkpt lat="43.93333" lon="5.21418">
        <ele>493.29</ele>
        <time>2009-05-19T10:31:50Z</time>
      </trkpt>
      <trkpt lat="43.9334" lon="5.21427">
        <ele>497.14</ele>
        <time>2009-05-19T10:32:06Z</time>
      </trkpt>
      <trkpt lat="43.93347" lon="5.21433">
        <ele>498.58</ele>
        <time>2009-05-19T10:32:18Z</time>
      </trkpt>
      <trkpt lat="43.93351" lon="5.21447">
        <ele>504.83</ele>
        <time>2009-05-19T10:32:35Z</time>
      </trkpt>
      <trkpt lat="43.93359" lon="5.2146">
        <ele>503.87</ele>
        <time>2009-05-19T10:32:50Z</time>
      </trkpt>
      <trkpt lat="43.93365" lon="5.21471">
        <ele>505.79</ele>
        <time>2009-05-19T10:33:03Z</time>
      </trkpt>
      <trkpt lat="43.93371" lon="5.21477">
        <ele>501.95</ele>
        <time>2009-05-19T10:33:22Z</time>
      </trkpt>
      <trkpt lat="43.9338" lon="5.21491">
        <ele>502.91</ele>
        <time>2009-05-19T10:33:37Z</time>
      </trkpt>
      <trkpt lat="43.93391" lon="5.21499">
        <ele>509.64</ele>
        <time>2009-05-19T10:33:53Z</time>
      </trkpt>
      <trkpt lat="43.93404" lon="5.21515">
        <ele>506.27</ele>
        <time>2009-05-19T10:34:09Z</time>
      </trkpt>
      <trkpt lat="43.93414" lon="5.2152">
        <ele>513.48</ele>
        <time>2009-05-19T10:34:25Z</time>
      </trkpt>
      <trkpt lat="43.93417" lon="5.21523">
        <ele>515.88</ele>
        <time>2009-05-19T10:34:28Z</time>
      </trkpt>
      <trkpt lat="43.93435" lon="5.21527">
        <ele>513.48</ele>
        <time>2009-05-19T10:34:43Z</time>
      </trkpt>
      <trkpt lat="43.9345" lon="5.21536">
        <ele>516.85</ele>
        <time>2009-05-19T10:34:58Z</time>
      </trkpt>
      <trkpt lat="43.93463" lon="5.21546">
        <ele>515.88</ele>
        <time>2009-05-19T10:35:13Z</time>
      </trkpt>
      <trkpt lat="43.93474" lon="5.21553">
        <ele>513</ele>
        <time>2009-05-19T10:35:25Z</time>
      </trkpt>
      <trkpt lat="43.93485" lon="5.21557">
        <ele>514.92</ele>
        <time>2009-05-19T10:35:37Z</time>
      </trkpt>
      <trkpt lat="43.935" lon="5.21565">
        <ele>512.52</ele>
        <time>2009-05-19T10:35:54Z</time>
      </trkpt>
      <trkpt lat="43.93512" lon="5.21575">
        <ele>511.56</ele>
        <time>2009-05-19T10:36:12Z</time>
      </trkpt>
      <trkpt lat="43.93522" lon="5.21582">
        <ele>515.4</ele>
        <time>2009-05-19T10:36:27Z</time>
      </trkpt>
      <trkpt lat="43.93527" lon="5.2159">
        <ele>508.19</ele>
        <time>2009-05-19T10:36:43Z</time>
      </trkpt>
      <trkpt lat="43.93531" lon="5.2159">
        <ele>505.79</ele>
        <time>2009-05-19T10:37:19Z</time>
      </trkpt>
      <trkpt lat="43.93535" lon="5.21598">
        <ele>510.12</ele>
        <time>2009-05-19T10:37:34Z</time>
      </trkpt>
      <trkpt lat="43.93541" lon="5.21604">
        <ele>509.64</ele>
        <time>2009-05-19T10:37:47Z</time>
      </trkpt>
      <trkpt lat="43.93549" lon="5.21616">
        <ele>510.12</ele>
        <time>2009-05-19T10:38:03Z</time>
      </trkpt>
      <trkpt lat="43.93555" lon="5.21623">
        <ele>507.23</ele>
        <time>2009-05-19T10:38:18Z</time>
      </trkpt>
      <trkpt lat="43.93556" lon="5.21627">
        <ele>504.35</ele>
        <time>2009-05-19T10:38:35Z</time>
      </trkpt>
      <trkpt lat="43.93561" lon="5.21632">
        <ele>504.35</ele>
        <time>2009-05-19T10:38:56Z</time>
      </trkpt>
      <trkpt lat="43.93568" lon="5.21642">
        <ele>503.87</ele>
        <time>2009-05-19T10:39:13Z</time>
      </trkpt>
      <trkpt lat="43.93576" lon="5.21647">
        <ele>506.27</ele>
        <time>2009-05-19T10:39:31Z</time>
      </trkpt>
      <trkpt lat="43.93579" lon="5.21654">
        <ele>500.5</ele>
        <time>2009-05-19T10:39:46Z</time>
      </trkpt>
      <trkpt lat="43.93585" lon="5.21656">
        <ele>502.91</ele>
        <time>2009-05-19T10:40:05Z</time>
      </trkpt>
      <trkpt lat="43.93591" lon="5.21653">
        <ele>503.87</ele>
        <time>2009-05-19T10:40:18Z</time>
      </trkpt>
      <trkpt lat="43.93593" lon="5.21645">
        <ele>501.46</ele>
        <time>2009-05-19T10:40:33Z</time>
      </trkpt>
      <trkpt lat="43.93594" lon="5.21643">
        <ele>497.62</ele>
        <time>2009-05-19T10:40:54Z</time>
      </trkpt>
      <trkpt lat="43.93593" lon="5.21644">
        <ele>495.22</ele>
        <time>2009-05-19T10:41:17Z</time>
      </trkpt>
      <trkpt lat="43.93593" lon="5.21643">
        <ele>496.66</ele>
        <time>2009-05-19T10:41:48Z</time>
      </trkpt>
      <trkpt lat="43.93596" lon="5.2164">
        <ele>491.37</ele>
        <time>2009-05-19T10:42:21Z</time>
      </trkpt>
      <trkpt lat="43.93596" lon="5.21641">
        <ele>493.29</ele>
        <time>2009-05-19T10:42:42Z</time>
      </trkpt>
      <trkpt lat="43.93595" lon="5.21647">
        <ele>500.98</ele>
        <time>2009-05-19T10:43:22Z</time>
      </trkpt>
      <trkpt lat="43.93595" lon="5.21644">
        <ele>499.54</ele>
        <time>2009-05-19T10:43:45Z</time>
      </trkpt>
      <trkpt lat="43.93596" lon="5.21641">
        <ele>498.1</ele>
        <time>2009-05-19T10:43:57Z</time>
      </trkpt>
      <trkpt lat="43.93591" lon="5.21645">
        <ele>496.18</ele>
        <time>2009-05-19T12:02:06Z</time>
      </trkpt>
      <trkpt lat="43.93591" lon="5.21645">
        <ele>492.81</ele>
        <time>2009-05-19T12:02:48Z</time>
      </trkpt>
      <trkpt lat="43.93591" lon="5.21646">
        <ele>493.29</ele>
        <time>2009-05-19T12:03:18Z</time>
      </trkpt>
      <trkpt lat="43.93595" lon="5.21647">
        <ele>492.33</ele>
        <time>2009-05-19T12:03:35Z</time>
      </trkpt>
      <trkpt lat="43.93601" lon="5.21647">
        <ele>490.41</ele>
        <time>2009-05-19T12:03:51Z</time>
      </trkpt>
      <trkpt lat="43.93608" lon="5.21645">
        <ele>489.45</ele>
        <time>2009-05-19T12:04:06Z</time>
      </trkpt>
      <trkpt lat="43.93616" lon="5.21649">
        <ele>488.97</ele>
        <time>2009-05-19T12:04:22Z</time>
      </trkpt>
      <trkpt lat="43.93626" lon="5.21653">
        <ele>491.85</ele>
        <time>2009-05-19T12:04:38Z</time>
      </trkpt>
      <trkpt lat="43.93636" lon="5.21656">
        <ele>493.77</ele>
        <time>2009-05-19T12:04:54Z</time>
      </trkpt>
      <trkpt lat="43.93648" lon="5.21661">
        <ele>489.45</ele>
        <time>2009-05-19T12:05:12Z</time>
      </trkpt>
      <trkpt lat="43.93661" lon="5.21666">
        <ele>491.85</ele>
        <time>2009-05-19T12:05:31Z</time>
      </trkpt>
      <trkpt lat="43.93669" lon="5.21672">
        <ele>492.81</ele>
        <time>2009-05-19T12:05:44Z</time>
      </trkpt>
      <trkpt lat="43.93681" lon="5.21679">
        <ele>492.81</ele>
        <time>2009-05-19T12:06:01Z</time>
      </trkpt>
      <trkpt lat="43.93693" lon="5.21683">
        <ele>492.33</ele>
        <time>2009-05-19T12:06:15Z</time>
      </trkpt>
      <trkpt lat="43.93707" lon="5.21686">
        <ele>487.53</ele>
        <time>2009-05-19T12:06:32Z</time>
      </trkpt>
      <trkpt lat="43.93717" lon="5.2169">
        <ele>486.08</ele>
        <time>2009-05-19T12:06:50Z</time>
      </trkpt>
      <trkpt lat="43.93725" lon="5.21692">
        <ele>484.64</ele>
        <time>2009-05-19T12:07:05Z</time>
      </trkpt>
      <trkpt lat="43.93732" lon="5.21693">
        <ele>482.72</ele>
        <time>2009-05-19T12:07:20Z</time>
      </trkpt>
      <trkpt lat="43.93739" lon="5.21698">
        <ele>483.68</ele>
        <time>2009-05-19T12:07:32Z</time>
      </trkpt>
      <trkpt lat="43.93745" lon="5.21712">
        <ele>485.12</ele>
        <time>2009-05-19T12:07:47Z</time>
      </trkpt>
      <trkpt lat="43.9375" lon="5.21727">
        <ele>484.64</ele>
        <time>2009-05-19T12:08:04Z</time>
      </trkpt>
      <trkpt lat="43.93751" lon="5.21744">
        <ele>483.2</ele>
        <time>2009-05-19T12:08:18Z</time>
      </trkpt>
      <trkpt lat="43.93751" lon="5.21748">
        <ele>483.2</ele>
        <time>2009-05-19T12:08:21Z</time>
      </trkpt>
      <trkpt lat="43.93753" lon="5.21769">
        <ele>483.2</ele>
        <time>2009-05-19T12:08:37Z</time>
      </trkpt>
      <trkpt lat="43.93753" lon="5.2177">
        <ele>483.2</ele>
        <time>2009-05-19T12:08:38Z</time>
      </trkpt>
      <trkpt lat="43.93757" lon="5.21786">
        <ele>485.12</ele>
        <time>2009-05-19T12:08:52Z</time>
      </trkpt>
      <trkpt lat="43.9376" lon="5.21805">
        <ele>486.08</ele>
        <time>2009-05-19T12:09:10Z</time>
      </trkpt>
      <trkpt lat="43.93761" lon="5.21813">
        <ele>486.08</ele>
        <time>2009-05-19T12:09:16Z</time>
      </trkpt>
      <trkpt lat="43.93761" lon="5.21834">
        <ele>487.53</ele>
        <time>2009-05-19T12:09:30Z</time>
      </trkpt>
      <trkpt lat="43.93765" lon="5.21849">
        <ele>488.01</ele>
        <time>2009-05-19T12:09:40Z</time>
      </trkpt>
      <trkpt lat="43.93758" lon="5.21863">
        <ele>484.64</ele>
        <time>2009-05-19T12:09:55Z</time>
      </trkpt>
      <trkpt lat="43.93758" lon="5.21879">
        <ele>482.72</ele>
        <time>2009-05-19T12:10:12Z</time>
      </trkpt>
      <trkpt lat="43.93761" lon="5.21892">
        <ele>481.28</ele>
        <time>2009-05-19T12:10:27Z</time>
      </trkpt>
      <trkpt lat="43.93764" lon="5.219">
        <ele>480.32</ele>
        <time>2009-05-19T12:10:42Z</time>
      </trkpt>
      <trkpt lat="43.93771" lon="5.21912">
        <ele>475.99</ele>
        <time>2009-05-19T12:10:59Z</time>
      </trkpt>
      <trkpt lat="43.93778" lon="5.21917">
        <ele>475.03</ele>
        <time>2009-05-19T12:11:11Z</time>
      </trkpt>
      <trkpt lat="43.9379" lon="5.21924">
        <ele>470.22</ele>
        <time>2009-05-19T12:11:26Z</time>
      </trkpt>
      <trkpt lat="43.93799" lon="5.21934">
        <ele>466.86</ele>
        <time>2009-05-19T12:11:43Z</time>
      </trkpt>
      <trkpt lat="43.93791" lon="5.21944">
        <ele>463.97</ele>
        <time>2009-05-19T12:12:00Z</time>
      </trkpt>
      <trkpt lat="43.9379" lon="5.21945">
        <ele>463.97</ele>
        <time>2009-05-19T12:12:02Z</time>
      </trkpt>
      <trkpt lat="43.93783" lon="5.21956">
        <ele>463.49</ele>
        <time>2009-05-19T12:12:15Z</time>
      </trkpt>
      <trkpt lat="43.93785" lon="5.21961">
        <ele>461.09</ele>
        <time>2009-05-19T12:12:32Z</time>
      </trkpt>
      <trkpt lat="43.93792" lon="5.21962">
        <ele>458.69</ele>
        <time>2009-05-19T12:12:44Z</time>
      </trkpt>
      <trkpt lat="43.93802" lon="5.21967">
        <ele>456.76</ele>
        <time>2009-05-19T12:12:59Z</time>
      </trkpt>
      <trkpt lat="43.93809" lon="5.21972">
        <ele>452.92</ele>
        <time>2009-05-19T12:13:13Z</time>
      </trkpt>
      <trkpt lat="43.93816" lon="5.21978">
        <ele>451</ele>
        <time>2009-05-19T12:13:29Z</time>
      </trkpt>
      <trkpt lat="43.9382" lon="5.21984">
        <ele>450.03</ele>
        <time>2009-05-19T12:13:46Z</time>
      </trkpt>
      <trkpt lat="43.93824" lon="5.21986">
        <ele>448.11</ele>
        <time>2009-05-19T12:14:04Z</time>
      </trkpt>
      <trkpt lat="43.93826" lon="5.21987">
        <ele>445.71</ele>
        <time>2009-05-19T12:14:22Z</time>
      </trkpt>
      <trkpt lat="43.93831" lon="5.21984">
        <ele>444.75</ele>
        <time>2009-05-19T12:14:36Z</time>
      </trkpt>
      <trkpt lat="43.93832" lon="5.21984">
        <ele>444.75</ele>
        <time>2009-05-19T12:14:37Z</time>
      </trkpt>
      <trkpt lat="43.93844" lon="5.21973">
        <ele>444.27</ele>
        <time>2009-05-19T12:14:53Z</time>
      </trkpt>
      <trkpt lat="43.93855" lon="5.21967">
        <ele>442.82</ele>
        <time>2009-05-19T12:15:08Z</time>
      </trkpt>
      <trkpt lat="43.9386" lon="5.21961">
        <ele>440.9</ele>
        <time>2009-05-19T12:15:16Z</time>
      </trkpt>
      <trkpt lat="43.93871" lon="5.2195">
        <ele>441.86</ele>
        <time>2009-05-19T12:15:35Z</time>
      </trkpt>
      <trkpt lat="43.93875" lon="5.21945">
        <ele>442.34</ele>
        <time>2009-05-19T12:15:42Z</time>
      </trkpt>
      <trkpt lat="43.9388" lon="5.21937">
        <ele>450.03</ele>
        <time>2009-05-19T12:15:59Z</time>
      </trkpt>
      <trkpt lat="43.93882" lon="5.21932">
        <ele>455.8</ele>
        <time>2009-05-19T12:16:12Z</time>
      </trkpt>
      <trkpt lat="43.93887" lon="5.21921">
        <ele>458.69</ele>
        <time>2009-05-19T12:16:29Z</time>
      </trkpt>
      <trkpt lat="43.93893" lon="5.21915">
        <ele>459.65</ele>
        <time>2009-05-19T12:16:39Z</time>
      </trkpt>
      <trkpt lat="43.93897" lon="5.21912">
        <ele>458.69</ele>
        <time>2009-05-19T12:16:45Z</time>
      </trkpt>
      <trkpt lat="43.93907" lon="5.21903">
        <ele>454.84</ele>
        <time>2009-05-19T12:17:00Z</time>
      </trkpt>
      <trkpt lat="43.93909" lon="5.21902">
        <ele>451.48</ele>
        <time>2009-05-19T12:17:08Z</time>
      </trkpt>
      <trkpt lat="43.93909" lon="5.21906">
        <ele>450.52</ele>
        <time>2009-05-19T12:17:14Z</time>
      </trkpt>
      <trkpt lat="43.93906" lon="5.21915">
        <ele>451</ele>
        <time>2009-05-19T12:17:27Z</time>
      </trkpt>
      <trkpt lat="43.93904" lon="5.21919">
        <ele>448.59</ele>
        <time>2009-05-19T12:17:34Z</time>
      </trkpt>
      <trkpt lat="43.93905" lon="5.21934">
        <ele>447.63</ele>
        <time>2009-05-19T12:17:46Z</time>
      </trkpt>
      <trkpt lat="43.93904" lon="5.21957">
        <ele>443.79</ele>
        <time>2009-05-19T12:18:04Z</time>
      </trkpt>
      <trkpt lat="43.93902" lon="5.21969">
        <ele>441.86</ele>
        <time>2009-05-19T12:18:20Z</time>
      </trkpt>
      <trkpt lat="43.939" lon="5.2199">
        <ele>441.38</ele>
        <time>2009-05-19T12:18:38Z</time>
      </trkpt>
      <trkpt lat="43.939" lon="5.22002">
        <ele>438.98</ele>
        <time>2009-05-19T12:18:51Z</time>
      </trkpt>
      <trkpt lat="43.93901" lon="5.22018">
        <ele>437.54</ele>
        <time>2009-05-19T12:19:07Z</time>
      </trkpt>
      <trkpt lat="43.93903" lon="5.22032">
        <ele>433.69</ele>
        <time>2009-05-19T12:19:24Z</time>
      </trkpt>
      <trkpt lat="43.93901" lon="5.22044">
        <ele>429.37</ele>
        <time>2009-05-19T12:19:40Z</time>
      </trkpt>
      <trkpt lat="43.93905" lon="5.22057">
        <ele>427.44</ele>
        <time>2009-05-19T12:19:56Z</time>
      </trkpt>
      <trkpt lat="43.93907" lon="5.22069">
        <ele>425.52</ele>
        <time>2009-05-19T12:20:13Z</time>
      </trkpt>
      <trkpt lat="43.93908" lon="5.22081">
        <ele>423.6</ele>
        <time>2009-05-19T12:20:29Z</time>
      </trkpt>
      <trkpt lat="43.9391" lon="5.22089">
        <ele>422.64</ele>
        <time>2009-05-19T12:20:48Z</time>
      </trkpt>
      <trkpt lat="43.93911" lon="5.22102">
        <ele>420.71</ele>
        <time>2009-05-19T12:21:06Z</time>
      </trkpt>
      <trkpt lat="43.93919" lon="5.22106">
        <ele>418.79</ele>
        <time>2009-05-19T12:21:23Z</time>
      </trkpt>
      <trkpt lat="43.93922" lon="5.22113">
        <ele>414.47</ele>
        <time>2009-05-19T12:21:39Z</time>
      </trkpt>
      <trkpt lat="43.93929" lon="5.22116">
        <ele>413.98</ele>
        <time>2009-05-19T12:21:49Z</time>
      </trkpt>
      <trkpt lat="43.93949" lon="5.22122">
        <ele>413.5</ele>
        <time>2009-05-19T12:22:09Z</time>
      </trkpt>
      <trkpt lat="43.93967" lon="5.22126">
        <ele>413.02</ele>
        <time>2009-05-19T12:22:27Z</time>
      </trkpt>
      <trkpt lat="43.93987" lon="5.22129">
        <ele>412.54</ele>
        <time>2009-05-19T12:22:48Z</time>
      </trkpt>
      <trkpt lat="43.94" lon="5.22134">
        <ele>410.62</ele>
        <time>2009-05-19T12:23:08Z</time>
      </trkpt>
      <trkpt lat="43.9401" lon="5.22141">
        <ele>409.18</ele>
        <time>2009-05-19T12:23:21Z</time>
      </trkpt>
      <trkpt lat="43.94019" lon="5.22154">
        <ele>408.22</ele>
        <time>2009-05-19T12:23:35Z</time>
      </trkpt>
      <trkpt lat="43.9402" lon="5.22158">
        <ele>407.26</ele>
        <time>2009-05-19T12:23:39Z</time>
      </trkpt>
      <trkpt lat="43.94022" lon="5.22163">
        <ele>406.77</ele>
        <time>2009-05-19T12:23:43Z</time>
      </trkpt>
      <trkpt lat="43.9402" lon="5.22177">
        <ele>401.01</ele>
        <time>2009-05-19T12:23:58Z</time>
      </trkpt>
      <trkpt lat="43.94021" lon="5.22187">
        <ele>401.01</ele>
        <time>2009-05-19T12:24:06Z</time>
      </trkpt>
      <trkpt lat="43.94024" lon="5.22206">
        <ele>403.89</ele>
        <time>2009-05-19T12:24:19Z</time>
      </trkpt>
      <trkpt lat="43.94025" lon="5.22225">
        <ele>406.29</ele>
        <time>2009-05-19T12:24:35Z</time>
      </trkpt>
      <trkpt lat="43.94025" lon="5.22249">
        <ele>408.22</ele>
        <time>2009-05-19T12:24:52Z</time>
      </trkpt>
      <trkpt lat="43.94026" lon="5.22269">
        <ele>411.58</ele>
        <time>2009-05-19T12:25:07Z</time>
      </trkpt>
      <trkpt lat="43.94035" lon="5.22296">
        <ele>410.62</ele>
        <time>2009-05-19T12:25:28Z</time>
      </trkpt>
      <trkpt lat="43.94039" lon="5.22299">
        <ele>411.58</ele>
        <time>2009-05-19T12:25:33Z</time>
      </trkpt>
      <trkpt lat="43.94058" lon="5.22309">
        <ele>413.5</ele>
        <time>2009-05-19T12:25:53Z</time>
      </trkpt>
      <trkpt lat="43.94076" lon="5.22317">
        <ele>411.58</ele>
        <time>2009-05-19T12:26:10Z</time>
      </trkpt>
      <trkpt lat="43.94098" lon="5.22317">
        <ele>403.89</ele>
        <time>2009-05-19T12:26:31Z</time>
      </trkpt>
      <trkpt lat="43.94113" lon="5.22312">
        <ele>402.93</ele>
        <time>2009-05-19T12:26:48Z</time>
      </trkpt>
      <trkpt lat="43.94127" lon="5.223">
        <ele>401.97</ele>
        <time>2009-05-19T12:27:06Z</time>
      </trkpt>
      <trkpt lat="43.94139" lon="5.22291">
        <ele>404.85</ele>
        <time>2009-05-19T12:27:21Z</time>
      </trkpt>
      <trkpt lat="43.9415" lon="5.22282">
        <ele>403.89</ele>
        <time>2009-05-19T12:27:38Z</time>
      </trkpt>
      <trkpt lat="43.94157" lon="5.22277">
        <ele>406.77</ele>
        <time>2009-05-19T12:27:53Z</time>
      </trkpt>
      <trkpt lat="43.94165" lon="5.22268">
        <ele>406.77</ele>
        <time>2009-05-19T12:28:07Z</time>
      </trkpt>
      <trkpt lat="43.9417" lon="5.22262">
        <ele>412.54</ele>
        <time>2009-05-19T12:28:22Z</time>
      </trkpt>
      <trkpt lat="43.9418" lon="5.22257">
        <ele>416.39</ele>
        <time>2009-05-19T12:28:37Z</time>
      </trkpt>
      <trkpt lat="43.9419" lon="5.22247">
        <ele>417.83</ele>
        <time>2009-05-19T12:28:54Z</time>
      </trkpt>
      <trkpt lat="43.94199" lon="5.2224">
        <ele>417.83</ele>
        <time>2009-05-19T12:29:10Z</time>
      </trkpt>
      <trkpt lat="43.94208" lon="5.22241">
        <ele>415.91</ele>
        <time>2009-05-19T12:29:25Z</time>
      </trkpt>
      <trkpt lat="43.94219" lon="5.2224">
        <ele>415.91</ele>
        <time>2009-05-19T12:29:39Z</time>
      </trkpt>
      <trkpt lat="43.94233" lon="5.22252">
        <ele>421.68</ele>
        <time>2009-05-19T12:29:58Z</time>
      </trkpt>
      <trkpt lat="43.94238" lon="5.22261">
        <ele>421.68</ele>
        <time>2009-05-19T12:30:10Z</time>
      </trkpt>
      <trkpt lat="43.94248" lon="5.22275">
        <ele>421.19</ele>
        <time>2009-05-19T12:30:28Z</time>
      </trkpt>
      <trkpt lat="43.94257" lon="5.22289">
        <ele>419.27</ele>
        <time>2009-05-19T12:30:43Z</time>
      </trkpt>
      <trkpt lat="43.94259" lon="5.22293">
        <ele>420.71</ele>
        <time>2009-05-19T12:30:47Z</time>
      </trkpt>
      <trkpt lat="43.94261" lon="5.22314">
        <ele>420.71</ele>
        <time>2009-05-19T12:31:01Z</time>
      </trkpt>
      <trkpt lat="43.94263" lon="5.22331">
        <ele>421.19</ele>
        <time>2009-05-19T12:31:15Z</time>
      </trkpt>
      <trkpt lat="43.94268" lon="5.22343">
        <ele>414.95</ele>
        <time>2009-05-19T12:31:39Z</time>
      </trkpt>
      <trkpt lat="43.94259" lon="5.22348">
        <ele>416.39</ele>
        <time>2009-05-19T12:32:10Z</time>
      </trkpt>
      <trkpt lat="43.94257" lon="5.22351">
        <ele>414.95</ele>
        <time>2009-05-19T12:32:15Z</time>
      </trkpt>
      <trkpt lat="43.94252" lon="5.22364">
        <ele>414.47</ele>
        <time>2009-05-19T12:32:28Z</time>
      </trkpt>
      <trkpt lat="43.94255" lon="5.22371">
        <ele>416.87</ele>
        <time>2009-05-19T12:32:37Z</time>
      </trkpt>
      <trkpt lat="43.94262" lon="5.22383">
        <ele>419.27</ele>
        <time>2009-05-19T12:32:53Z</time>
      </trkpt>
      <trkpt lat="43.94264" lon="5.22386">
        <ele>420.23</ele>
        <time>2009-05-19T12:32:58Z</time>
      </trkpt>
      <trkpt lat="43.94275" lon="5.22397">
        <ele>423.12</ele>
        <time>2009-05-19T12:33:15Z</time>
      </trkpt>
      <trkpt lat="43.94284" lon="5.2241">
        <ele>422.64</ele>
        <time>2009-05-19T12:33:29Z</time>
      </trkpt>
      <trkpt lat="43.9429" lon="5.22417">
        <ele>418.79</ele>
        <time>2009-05-19T12:33:36Z</time>
      </trkpt>
      <trkpt lat="43.94293" lon="5.22416">
        <ele>418.31</ele>
        <time>2009-05-19T12:33:38Z</time>
      </trkpt>
      <trkpt lat="43.943" lon="5.2242">
        <ele>418.31</ele>
        <time>2009-05-19T12:33:50Z</time>
      </trkpt>
      <trkpt lat="43.94312" lon="5.22423">
        <ele>418.79</ele>
        <time>2009-05-19T12:34:06Z</time>
      </trkpt>
      <trkpt lat="43.94326" lon="5.22425">
        <ele>418.79</ele>
        <time>2009-05-19T12:34:20Z</time>
      </trkpt>
      <trkpt lat="43.94347" lon="5.2242">
        <ele>413.98</ele>
        <time>2009-05-19T12:34:39Z</time>
      </trkpt>
      <trkpt lat="43.94364" lon="5.22414">
        <ele>412.06</ele>
        <time>2009-05-19T12:34:57Z</time>
      </trkpt>
      <trkpt lat="43.94379" lon="5.22406">
        <ele>413.02</ele>
        <time>2009-05-19T12:35:15Z</time>
      </trkpt>
      <trkpt lat="43.94397" lon="5.22404">
        <ele>417.83</ele>
        <time>2009-05-19T12:35:34Z</time>
      </trkpt>
      <trkpt lat="43.94398" lon="5.22404">
        <ele>419.27</ele>
        <time>2009-05-19T12:35:36Z</time>
      </trkpt>
      <trkpt lat="43.94419" lon="5.22408">
        <ele>418.79</ele>
        <time>2009-05-19T12:35:58Z</time>
      </trkpt>
      <trkpt lat="43.94434" lon="5.22414">
        <ele>424.08</ele>
        <time>2009-05-19T12:36:16Z</time>
      </trkpt>
      <trkpt lat="43.94443" lon="5.22424">
        <ele>423.12</ele>
        <time>2009-05-19T12:36:28Z</time>
      </trkpt>
      <trkpt lat="43.94451" lon="5.22439">
        <ele>424.56</ele>
        <time>2009-05-19T12:36:43Z</time>
      </trkpt>
      <trkpt lat="43.94465" lon="5.2245">
        <ele>424.56</ele>
        <time>2009-05-19T12:36:57Z</time>
      </trkpt>
      <trkpt lat="43.94474" lon="5.22454">
        <ele>426</ele>
        <time>2009-05-19T12:37:08Z</time>
      </trkpt>
      <trkpt lat="43.94485" lon="5.22463">
        <ele>427.44</ele>
        <time>2009-05-19T12:37:28Z</time>
      </trkpt>
      <trkpt lat="43.94491" lon="5.22474">
        <ele>423.6</ele>
        <time>2009-05-19T12:37:40Z</time>
      </trkpt>
      <trkpt lat="43.94497" lon="5.22482">
        <ele>426.96</ele>
        <time>2009-05-19T12:37:53Z</time>
      </trkpt>
      <trkpt lat="43.94501" lon="5.22494">
        <ele>425.52</ele>
        <time>2009-05-19T12:38:07Z</time>
      </trkpt>
      <trkpt lat="43.94499" lon="5.22505">
        <ele>430.81</ele>
        <time>2009-05-19T12:38:23Z</time>
      </trkpt>
      <trkpt lat="43.94493" lon="5.22504">
        <ele>430.33</ele>
        <time>2009-05-19T12:38:38Z</time>
      </trkpt>
      <trkpt lat="43.94491" lon="5.22512">
        <ele>428.89</ele>
        <time>2009-05-19T12:38:53Z</time>
      </trkpt>
      <trkpt lat="43.94491" lon="5.22526">
        <ele>428.89</ele>
        <time>2009-05-19T12:39:08Z</time>
      </trkpt>
      <trkpt lat="43.94494" lon="5.2254">
        <ele>430.81</ele>
        <time>2009-05-19T12:39:25Z</time>
      </trkpt>
      <trkpt lat="43.945" lon="5.22558">
        <ele>435.61</ele>
        <time>2009-05-19T12:39:44Z</time>
      </trkpt>
      <trkpt lat="43.94511" lon="5.22576">
        <ele>437.54</ele>
        <time>2009-05-19T12:40:02Z</time>
      </trkpt>
      <trkpt lat="43.94526" lon="5.22597">
        <ele>440.42</ele>
        <time>2009-05-19T12:40:23Z</time>
      </trkpt>
      <trkpt lat="43.9453" lon="5.22606">
        <ele>442.82</ele>
        <time>2009-05-19T12:40:31Z</time>
      </trkpt>
      <trkpt lat="43.94541" lon="5.2263">
        <ele>441.38</ele>
        <time>2009-05-19T12:40:49Z</time>
      </trkpt>
      <trkpt lat="43.94551" lon="5.22649">
        <ele>442.82</ele>
        <time>2009-05-19T12:41:08Z</time>
      </trkpt>
      <trkpt lat="43.94562" lon="5.2267">
        <ele>442.34</ele>
        <time>2009-05-19T12:41:27Z</time>
      </trkpt>
      <trkpt lat="43.9457" lon="5.22687">
        <ele>442.34</ele>
        <time>2009-05-19T12:41:41Z</time>
      </trkpt>
      <trkpt lat="43.94579" lon="5.22707">
        <ele>444.75</ele>
        <time>2009-05-19T12:41:57Z</time>
      </trkpt>
      <trkpt lat="43.94584" lon="5.22719">
        <ele>442.82</ele>
        <time>2009-05-19T12:42:12Z</time>
      </trkpt>
      <trkpt lat="43.94588" lon="5.22727">
        <ele>435.61</ele>
        <time>2009-05-19T12:43:13Z</time>
      </trkpt>
      <trkpt lat="43.9459" lon="5.22731">
        <ele>438.02</ele>
        <time>2009-05-19T12:43:46Z</time>
      </trkpt>
      <trkpt lat="43.94606" lon="5.22744">
        <ele>440.42</ele>
        <time>2009-05-19T12:44:06Z</time>
      </trkpt>
      <trkpt lat="43.94614" lon="5.22753">
        <ele>434.17</ele>
        <time>2009-05-19T12:44:23Z</time>
      </trkpt>
      <trkpt lat="43.94616" lon="5.22758">
        <ele>433.69</ele>
        <time>2009-05-19T12:44:50Z</time>
      </trkpt>
      <trkpt lat="43.94626" lon="5.22766">
        <ele>437.54</ele>
        <time>2009-05-19T12:45:07Z</time>
      </trkpt>
      <trkpt lat="43.94638" lon="5.22776">
        <ele>440.42</ele>
        <time>2009-05-19T12:45:22Z</time>
      </trkpt>
      <trkpt lat="43.9464" lon="5.22778">
        <ele>440.9</ele>
        <time>2009-05-19T12:45:24Z</time>
      </trkpt>
      <trkpt lat="43.94649" lon="5.22786">
        <ele>442.34</ele>
        <time>2009-05-19T12:45:36Z</time>
      </trkpt>
      <trkpt lat="43.94658" lon="5.22802">
        <ele>441.38</ele>
        <time>2009-05-19T12:45:50Z</time>
      </trkpt>
      <trkpt lat="43.94672" lon="5.22824">
        <ele>438.02</ele>
        <time>2009-05-19T12:46:07Z</time>
      </trkpt>
      <trkpt lat="43.94679" lon="5.22837">
        <ele>442.34</ele>
        <time>2009-05-19T12:46:20Z</time>
      </trkpt>
      <trkpt lat="43.94687" lon="5.22851">
        <ele>443.31</ele>
        <time>2009-05-19T12:46:33Z</time>
      </trkpt>
      <trkpt lat="43.9469" lon="5.22856">
        <ele>442.82</ele>
        <time>2009-05-19T12:46:36Z</time>
      </trkpt>
      <trkpt lat="43.94696" lon="5.22876">
        <ele>443.31</ele>
        <time>2009-05-19T12:46:53Z</time>
      </trkpt>
      <trkpt lat="43.94708" lon="5.22897">
        <ele>444.75</ele>
        <time>2009-05-19T12:47:09Z</time>
      </trkpt>
      <trkpt lat="43.94715" lon="5.22924">
        <ele>443.79</ele>
        <time>2009-05-19T12:47:26Z</time>
      </trkpt>
      <trkpt lat="43.94727" lon="5.22948">
        <ele>444.27</ele>
        <time>2009-05-19T12:47:43Z</time>
      </trkpt>
      <trkpt lat="43.9474" lon="5.22969">
        <ele>443.31</ele>
        <time>2009-05-19T12:47:59Z</time>
      </trkpt>
      <trkpt lat="43.94747" lon="5.22981">
        <ele>444.75</ele>
        <time>2009-05-19T12:48:16Z</time>
      </trkpt>
      <trkpt lat="43.94753" lon="5.22989">
        <ele>434.65</ele>
        <time>2009-05-19T12:48:31Z</time>
      </trkpt>
      <trkpt lat="43.94753" lon="5.22992">
        <ele>433.21</ele>
        <time>2009-05-19T12:48:55Z</time>
      </trkpt>
      <trkpt lat="43.94756" lon="5.22992">
        <ele>433.21</ele>
        <time>2009-05-19T12:49:14Z</time>
      </trkpt>
      <trkpt lat="43.94762" lon="5.23002">
        <ele>438.02</ele>
        <time>2009-05-19T12:49:30Z</time>
      </trkpt>
      <trkpt lat="43.94771" lon="5.23018">
        <ele>438.5</ele>
        <time>2009-05-19T12:49:46Z</time>
      </trkpt>
      <trkpt lat="43.94777" lon="5.23033">
        <ele>442.82</ele>
        <time>2009-05-19T12:50:02Z</time>
      </trkpt>
      <trkpt lat="43.94793" lon="5.23042">
        <ele>446.67</ele>
        <time>2009-05-19T12:50:20Z</time>
      </trkpt>
      <trkpt lat="43.94794" lon="5.23043">
        <ele>446.19</ele>
        <time>2009-05-19T12:50:21Z</time>
      </trkpt>
      <trkpt lat="43.94822" lon="5.2305">
        <ele>444.75</ele>
        <time>2009-05-19T12:50:44Z</time>
      </trkpt>
      <trkpt lat="43.94845" lon="5.23063">
        <ele>444.75</ele>
        <time>2009-05-19T12:51:05Z</time>
      </trkpt>
      <trkpt lat="43.94859" lon="5.23073">
        <ele>448.59</ele>
        <time>2009-05-19T12:51:22Z</time>
      </trkpt>
      <trkpt lat="43.94873" lon="5.23087">
        <ele>448.11</ele>
        <time>2009-05-19T12:51:38Z</time>
      </trkpt>
      <trkpt lat="43.9488" lon="5.23102">
        <ele>448.59</ele>
        <time>2009-05-19T12:51:50Z</time>
      </trkpt>
      <trkpt lat="43.94888" lon="5.23138">
        <ele>447.15</ele>
        <time>2009-05-19T12:52:13Z</time>
      </trkpt>
      <trkpt lat="43.94889" lon="5.23165">
        <ele>447.15</ele>
        <time>2009-05-19T12:52:30Z</time>
      </trkpt>
      <trkpt lat="43.94888" lon="5.23198">
        <ele>445.71</ele>
        <time>2009-05-19T12:52:50Z</time>
      </trkpt>
      <trkpt lat="43.94889" lon="5.23212">
        <ele>445.71</ele>
        <time>2009-05-19T12:52:58Z</time>
      </trkpt>
      <trkpt lat="43.94888" lon="5.2324">
        <ele>445.71</ele>
        <time>2009-05-19T12:53:16Z</time>
      </trkpt>
      <trkpt lat="43.94887" lon="5.23259">
        <ele>443.79</ele>
        <time>2009-05-19T12:53:33Z</time>
      </trkpt>
      <trkpt lat="43.9488" lon="5.23265">
        <ele>443.31</ele>
        <time>2009-05-19T12:53:48Z</time>
      </trkpt>
      <trkpt lat="43.94877" lon="5.23265">
        <ele>444.75</ele>
        <time>2009-05-19T12:53:57Z</time>
      </trkpt>
      <trkpt lat="43.94865" lon="5.23247">
        <ele>447.63</ele>
        <time>2009-05-19T12:54:16Z</time>
      </trkpt>
      <trkpt lat="43.94851" lon="5.2323">
        <ele>450.03</ele>
        <time>2009-05-19T12:54:35Z</time>
      </trkpt>
      <trkpt lat="43.94837" lon="5.23211">
        <ele>452.92</ele>
        <time>2009-05-19T12:54:54Z</time>
      </trkpt>
      <trkpt lat="43.94818" lon="5.23194">
        <ele>453.88</ele>
        <time>2009-05-19T12:55:16Z</time>
      </trkpt>
      <trkpt lat="43.948" lon="5.23184">
        <ele>453.4</ele>
        <time>2009-05-19T12:55:37Z</time>
      </trkpt>
      <trkpt lat="43.94779" lon="5.23174">
        <ele>456.28</ele>
        <time>2009-05-19T12:56:00Z</time>
      </trkpt>
      <trkpt lat="43.9476" lon="5.2316">
        <ele>460.13</ele>
        <time>2009-05-19T12:56:23Z</time>
      </trkpt>
      <trkpt lat="43.9474" lon="5.23141">
        <ele>463.01</ele>
        <time>2009-05-19T12:56:47Z</time>
      </trkpt>
      <trkpt lat="43.94721" lon="5.23119">
        <ele>462.53</ele>
        <time>2009-05-19T12:57:11Z</time>
      </trkpt>
      <trkpt lat="43.947" lon="5.23099">
        <ele>461.09</ele>
        <time>2009-05-19T12:57:36Z</time>
      </trkpt>
      <trkpt lat="43.94686" lon="5.23091">
        <ele>460.61</ele>
        <time>2009-05-19T12:57:51Z</time>
      </trkpt>
      <trkpt lat="43.94659" lon="5.23078">
        <ele>461.09</ele>
        <time>2009-05-19T12:58:18Z</time>
      </trkpt>
      <trkpt lat="43.94637" lon="5.23069">
        <ele>463.01</ele>
        <time>2009-05-19T12:58:40Z</time>
      </trkpt>
      <trkpt lat="43.94621" lon="5.23062">
        <ele>464.45</ele>
        <time>2009-05-19T12:58:56Z</time>
      </trkpt>
      <trkpt lat="43.94604" lon="5.23048">
        <ele>468.3</ele>
        <time>2009-05-19T12:59:15Z</time>
      </trkpt>
      <trkpt lat="43.94595" lon="5.23027">
        <ele>473.11</ele>
        <time>2009-05-19T12:59:34Z</time>
      </trkpt>
      <trkpt lat="43.94578" lon="5.23011">
        <ele>473.11</ele>
        <time>2009-05-19T12:59:55Z</time>
      </trkpt>
      <trkpt lat="43.94562" lon="5.23">
        <ele>473.59</ele>
        <time>2009-05-19T13:00:14Z</time>
      </trkpt>
      <trkpt lat="43.94546" lon="5.22993">
        <ele>474.07</ele>
        <time>2009-05-19T13:00:33Z</time>
      </trkpt>
      <trkpt lat="43.94532" lon="5.22989">
        <ele>475.99</ele>
        <time>2009-05-19T13:00:52Z</time>
      </trkpt>
      <trkpt lat="43.94522" lon="5.22988">
        <ele>476.47</ele>
        <time>2009-05-19T13:01:11Z</time>
      </trkpt>
      <trkpt lat="43.94519" lon="5.22989">
        <ele>473.59</ele>
        <time>2009-05-19T13:01:37Z</time>
      </trkpt>
      <trkpt lat="43.94508" lon="5.22988">
        <ele>475.99</ele>
        <time>2009-05-19T13:01:59Z</time>
      </trkpt>
      <trkpt lat="43.94502" lon="5.22985">
        <ele>476.95</ele>
        <time>2009-05-19T13:02:15Z</time>
      </trkpt>
      <trkpt lat="43.94495" lon="5.22989">
        <ele>477.43</ele>
        <time>2009-05-19T13:02:36Z</time>
      </trkpt>
      <trkpt lat="43.94483" lon="5.22993">
        <ele>479.35</ele>
        <time>2009-05-19T13:02:52Z</time>
      </trkpt>
      <trkpt lat="43.94475" lon="5.23002">
        <ele>482.24</ele>
        <time>2009-05-19T13:03:10Z</time>
      </trkpt>
      <trkpt lat="43.94472" lon="5.23006">
        <ele>484.16</ele>
        <time>2009-05-19T13:03:23Z</time>
      </trkpt>
      <trkpt lat="43.94461" lon="5.2301">
        <ele>484.64</ele>
        <time>2009-05-19T13:03:37Z</time>
      </trkpt>
      <trkpt lat="43.94448" lon="5.23018">
        <ele>487.05</ele>
        <time>2009-05-19T13:03:57Z</time>
      </trkpt>
      <trkpt lat="43.94433" lon="5.23024">
        <ele>487.05</ele>
        <time>2009-05-19T13:04:14Z</time>
      </trkpt>
      <trkpt lat="43.94417" lon="5.23031">
        <ele>488.49</ele>
        <time>2009-05-19T13:04:32Z</time>
      </trkpt>
      <trkpt lat="43.94411" lon="5.23039">
        <ele>491.85</ele>
        <time>2009-05-19T13:04:49Z</time>
      </trkpt>
      <trkpt lat="43.944" lon="5.23046">
        <ele>495.22</ele>
        <time>2009-05-19T13:05:08Z</time>
      </trkpt>
      <trkpt lat="43.94393" lon="5.23053">
        <ele>496.66</ele>
        <time>2009-05-19T13:05:21Z</time>
      </trkpt>
      <trkpt lat="43.94385" lon="5.23083">
        <ele>499.54</ele>
        <time>2009-05-19T13:05:43Z</time>
      </trkpt>
      <trkpt lat="43.94382" lon="5.23099">
        <ele>500.98</ele>
        <time>2009-05-19T13:05:59Z</time>
      </trkpt>
      <trkpt lat="43.94383" lon="5.23105">
        <ele>501.46</ele>
        <time>2009-05-19T13:06:03Z</time>
      </trkpt>
      <trkpt lat="43.94384" lon="5.2312">
        <ele>501.46</ele>
        <time>2009-05-19T13:06:12Z</time>
      </trkpt>
      <trkpt lat="43.94393" lon="5.23151">
        <ele>502.91</ele>
        <time>2009-05-19T13:06:33Z</time>
      </trkpt>
      <trkpt lat="43.94396" lon="5.23153">
        <ele>502.43</ele>
        <time>2009-05-19T13:06:40Z</time>
      </trkpt>
      <trkpt lat="43.94398" lon="5.23154">
        <ele>502.43</ele>
        <time>2009-05-19T13:06:42Z</time>
      </trkpt>
      <trkpt lat="43.94413" lon="5.2318">
        <ele>506.75</ele>
        <time>2009-05-19T13:07:03Z</time>
      </trkpt>
      <trkpt lat="43.94418" lon="5.23192">
        <ele>508.19</ele>
        <time>2009-05-19T13:07:11Z</time>
      </trkpt>
      <trkpt lat="43.9443" lon="5.23215">
        <ele>508.67</ele>
        <time>2009-05-19T13:07:28Z</time>
      </trkpt>
      <trkpt lat="43.94442" lon="5.23237">
        <ele>507.71</ele>
        <time>2009-05-19T13:07:44Z</time>
      </trkpt>
      <trkpt lat="43.9445" lon="5.23252">
        <ele>507.23</ele>
        <time>2009-05-19T13:07:54Z</time>
      </trkpt>
      <trkpt lat="43.94457" lon="5.23284">
        <ele>505.79</ele>
        <time>2009-05-19T13:08:12Z</time>
      </trkpt>
      <trkpt lat="43.9446" lon="5.23313">
        <ele>505.79</ele>
        <time>2009-05-19T13:08:32Z</time>
      </trkpt>
      <trkpt lat="43.94471" lon="5.23337">
        <ele>505.79</ele>
        <time>2009-05-19T13:08:54Z</time>
      </trkpt>
      <trkpt lat="43.94483" lon="5.23361">
        <ele>505.79</ele>
        <time>2009-05-19T13:09:12Z</time>
      </trkpt>
      <trkpt lat="43.9449" lon="5.23381">
        <ele>505.79</ele>
        <time>2009-05-19T13:09:27Z</time>
      </trkpt>
      <trkpt lat="43.94495" lon="5.23408">
        <ele>505.79</ele>
        <time>2009-05-19T13:09:45Z</time>
      </trkpt>
      <trkpt lat="43.94502" lon="5.23433">
        <ele>503.87</ele>
        <time>2009-05-19T13:10:02Z</time>
      </trkpt>
      <trkpt lat="43.94506" lon="5.23463">
        <ele>502.91</ele>
        <time>2009-05-19T13:10:22Z</time>
      </trkpt>
      <trkpt lat="43.94505" lon="5.23492">
        <ele>502.91</ele>
        <time>2009-05-19T13:10:43Z</time>
      </trkpt>
      <trkpt lat="43.945" lon="5.23508">
        <ele>501.95</ele>
        <time>2009-05-19T13:11:00Z</time>
      </trkpt>
      <trkpt lat="43.94501" lon="5.23512">
        <ele>501.46</ele>
        <time>2009-05-19T13:11:03Z</time>
      </trkpt>
      <trkpt lat="43.94493" lon="5.23513">
        <ele>499.06</ele>
        <time>2009-05-19T13:11:17Z</time>
      </trkpt>
      <trkpt lat="43.9449" lon="5.2351">
        <ele>498.58</ele>
        <time>2009-05-19T13:11:21Z</time>
      </trkpt>
      <trkpt lat="43.94475" lon="5.23499">
        <ele>497.62</ele>
        <time>2009-05-19T13:11:40Z</time>
      </trkpt>
      <trkpt lat="43.94453" lon="5.23488">
        <ele>492.81</ele>
        <time>2009-05-19T13:12:02Z</time>
      </trkpt>
      <trkpt lat="43.9443" lon="5.2348">
        <ele>490.41</ele>
        <time>2009-05-19T13:12:26Z</time>
      </trkpt>
      <trkpt lat="43.94407" lon="5.23475">
        <ele>488.97</ele>
        <time>2009-05-19T13:12:49Z</time>
      </trkpt>
      <trkpt lat="43.94387" lon="5.23473">
        <ele>488.01</ele>
        <time>2009-05-19T13:13:07Z</time>
      </trkpt>
      <trkpt lat="43.94358" lon="5.23472">
        <ele>488.01</ele>
        <time>2009-05-19T13:13:33Z</time>
      </trkpt>
      <trkpt lat="43.94332" lon="5.23472">
        <ele>489.45</ele>
        <time>2009-05-19T13:13:56Z</time>
      </trkpt>
      <trkpt lat="43.9431" lon="5.23471">
        <ele>487.53</ele>
        <time>2009-05-19T13:14:18Z</time>
      </trkpt>
      <trkpt lat="43.94287" lon="5.23472">
        <ele>486.08</ele>
        <time>2009-05-19T13:14:39Z</time>
      </trkpt>
      <trkpt lat="43.94263" lon="5.23473">
        <ele>485.12</ele>
        <time>2009-05-19T13:15:01Z</time>
      </trkpt>
      <trkpt lat="43.94236" lon="5.23476">
        <ele>483.2</ele>
        <time>2009-05-19T13:15:23Z</time>
      </trkpt>
      <trkpt lat="43.94214" lon="5.23485">
        <ele>484.16</ele>
        <time>2009-05-19T13:15:43Z</time>
      </trkpt>
      <trkpt lat="43.94186" lon="5.23488">
        <ele>482.72</ele>
        <time>2009-05-19T13:16:06Z</time>
      </trkpt>
      <trkpt lat="43.94167" lon="5.23486">
        <ele>483.68</ele>
        <time>2009-05-19T13:16:25Z</time>
      </trkpt>
      <trkpt lat="43.94146" lon="5.23482">
        <ele>482.72</ele>
        <time>2009-05-19T13:16:43Z</time>
      </trkpt>
      <trkpt lat="43.94121" lon="5.23472">
        <ele>485.12</ele>
        <time>2009-05-19T13:17:06Z</time>
      </trkpt>
      <trkpt lat="43.94099" lon="5.23458">
        <ele>488.01</ele>
        <time>2009-05-19T13:17:27Z</time>
      </trkpt>
      <trkpt lat="43.94075" lon="5.23432">
        <ele>486.08</ele>
        <time>2009-05-19T13:17:52Z</time>
      </trkpt>
      <trkpt lat="43.94052" lon="5.23415">
        <ele>481.76</ele>
        <time>2009-05-19T13:18:16Z</time>
      </trkpt>
      <trkpt lat="43.94031" lon="5.23411">
        <ele>477.43</ele>
        <time>2009-05-19T13:18:38Z</time>
      </trkpt>
      <trkpt lat="43.94016" lon="5.234">
        <ele>477.43</ele>
        <time>2009-05-19T13:18:56Z</time>
      </trkpt>
      <trkpt lat="43.94003" lon="5.23381">
        <ele>477.43</ele>
        <time>2009-05-19T13:19:14Z</time>
      </trkpt>
      <trkpt lat="43.93991" lon="5.23362">
        <ele>477.43</ele>
        <time>2009-05-19T13:19:31Z</time>
      </trkpt>
      <trkpt lat="43.93968" lon="5.23335">
        <ele>469.26</ele>
        <time>2009-05-19T13:19:56Z</time>
      </trkpt>
      <trkpt lat="43.93945" lon="5.23315">
        <ele>465.9</ele>
        <time>2009-05-19T13:20:19Z</time>
      </trkpt>
      <trkpt lat="43.9392" lon="5.23295">
        <ele>463.01</ele>
        <time>2009-05-19T13:20:44Z</time>
      </trkpt>
      <trkpt lat="43.93897" lon="5.23276">
        <ele>462.53</ele>
        <time>2009-05-19T13:21:07Z</time>
      </trkpt>
      <trkpt lat="43.93879" lon="5.23261">
        <ele>462.53</ele>
        <time>2009-05-19T13:21:29Z</time>
      </trkpt>
      <trkpt lat="43.93872" lon="5.23255">
        <ele>462.53</ele>
        <time>2009-05-19T13:21:42Z</time>
      </trkpt>
      <trkpt lat="43.9386" lon="5.23245">
        <ele>464.45</ele>
        <time>2009-05-19T13:22:01Z</time>
      </trkpt>
      <trkpt lat="43.93854" lon="5.23227">
        <ele>468.3</ele>
        <time>2009-05-19T13:22:18Z</time>
      </trkpt>
      <trkpt lat="43.93843" lon="5.23214">
        <ele>467.82</ele>
        <time>2009-05-19T13:22:33Z</time>
      </trkpt>
      <trkpt lat="43.93825" lon="5.23199">
        <ele>468.78</ele>
        <time>2009-05-19T13:22:54Z</time>
      </trkpt>
      <trkpt lat="43.93814" lon="5.23191">
        <ele>467.82</ele>
        <time>2009-05-19T13:23:13Z</time>
      </trkpt>
      <trkpt lat="43.93803" lon="5.2319">
        <ele>467.34</ele>
        <time>2009-05-19T13:23:27Z</time>
      </trkpt>
      <trkpt lat="43.93789" lon="5.23191">
        <ele>467.82</ele>
        <time>2009-05-19T13:23:45Z</time>
      </trkpt>
      <trkpt lat="43.93773" lon="5.23195">
        <ele>468.3</ele>
        <time>2009-05-19T13:24:02Z</time>
      </trkpt>
      <trkpt lat="43.93772" lon="5.23195">
        <ele>468.3</ele>
        <time>2009-05-19T13:24:03Z</time>
      </trkpt>
      <trkpt lat="43.93757" lon="5.23196">
        <ele>466.86</ele>
        <time>2009-05-19T13:24:19Z</time>
      </trkpt>
      <trkpt lat="43.93743" lon="5.23191">
        <ele>462.53</ele>
        <time>2009-05-19T13:24:36Z</time>
      </trkpt>
      <trkpt lat="43.93737" lon="5.23187">
        <ele>461.09</ele>
        <time>2009-05-19T13:24:43Z</time>
      </trkpt>
      <trkpt lat="43.93727" lon="5.23177">
        <ele>459.65</ele>
        <time>2009-05-19T13:24:58Z</time>
      </trkpt>
      <trkpt lat="43.93718" lon="5.23163">
        <ele>460.13</ele>
        <time>2009-05-19T13:25:17Z</time>
      </trkpt>
      <trkpt lat="43.93709" lon="5.2315">
        <ele>460.61</ele>
        <time>2009-05-19T13:25:37Z</time>
      </trkpt>
      <trkpt lat="43.93703" lon="5.23137">
        <ele>459.65</ele>
        <time>2009-05-19T13:25:56Z</time>
      </trkpt>
      <trkpt lat="43.93696" lon="5.23122">
        <ele>459.65</ele>
        <time>2009-05-19T13:26:15Z</time>
      </trkpt>
      <trkpt lat="43.9369" lon="5.23108">
        <ele>458.69</ele>
        <time>2009-05-19T13:26:31Z</time>
      </trkpt>
      <trkpt lat="43.93683" lon="5.231">
        <ele>457.72</ele>
        <time>2009-05-19T13:26:47Z</time>
      </trkpt>
      <trkpt lat="43.9368" lon="5.23093">
        <ele>458.69</ele>
        <time>2009-05-19T13:27:02Z</time>
      </trkpt>
      <trkpt lat="43.93679" lon="5.23093">
        <ele>457.72</ele>
        <time>2009-05-19T13:27:51Z</time>
      </trkpt>
      <trkpt lat="43.93677" lon="5.23093">
        <ele>455.8</ele>
        <time>2009-05-19T13:27:58Z</time>
      </trkpt>
      <trkpt lat="43.93663" lon="5.23086">
        <ele>454.36</ele>
        <time>2009-05-19T13:28:15Z</time>
      </trkpt>
      <trkpt lat="43.93652" lon="5.23081">
        <ele>455.32</ele>
        <time>2009-05-19T13:28:26Z</time>
      </trkpt>
      <trkpt lat="43.93647" lon="5.23077">
        <ele>454.36</ele>
        <time>2009-05-19T13:28:30Z</time>
      </trkpt>
      <trkpt lat="43.9363" lon="5.23063">
        <ele>451.96</ele>
        <time>2009-05-19T13:28:48Z</time>
      </trkpt>
      <trkpt lat="43.9362" lon="5.23054">
        <ele>453.88</ele>
        <time>2009-05-19T13:29:02Z</time>
      </trkpt>
      <trkpt lat="43.93601" lon="5.23039">
        <ele>457.24</ele>
        <time>2009-05-19T13:29:22Z</time>
      </trkpt>
      <trkpt lat="43.93593" lon="5.23028">
        <ele>460.13</ele>
        <time>2009-05-19T13:29:33Z</time>
      </trkpt>
      <trkpt lat="43.93587" lon="5.23019">
        <ele>462.05</ele>
        <time>2009-05-19T13:29:41Z</time>
      </trkpt>
      <trkpt lat="43.93577" lon="5.23011">
        <ele>457.24</ele>
        <time>2009-05-19T13:29:54Z</time>
      </trkpt>
      <trkpt lat="43.93562" lon="5.23009">
        <ele>455.32</ele>
        <time>2009-05-19T13:30:10Z</time>
      </trkpt>
      <trkpt lat="43.93553" lon="5.23006">
        <ele>455.32</ele>
        <time>2009-05-19T13:30:20Z</time>
      </trkpt>
      <trkpt lat="43.93531" lon="5.23001">
        <ele>453.88</ele>
        <time>2009-05-19T13:30:38Z</time>
      </trkpt>
      <trkpt lat="43.93517" lon="5.22997">
        <ele>451.48</ele>
        <time>2009-05-19T13:30:53Z</time>
      </trkpt>
      <trkpt lat="43.93499" lon="5.22991">
        <ele>449.07</ele>
        <time>2009-05-19T13:31:11Z</time>
      </trkpt>
      <trkpt lat="43.93482" lon="5.22991">
        <ele>448.59</ele>
        <time>2009-05-19T13:31:28Z</time>
      </trkpt>
      <trkpt lat="43.93461" lon="5.22992">
        <ele>446.19</ele>
        <time>2009-05-19T13:31:49Z</time>
      </trkpt>
      <trkpt lat="43.93456" lon="5.22994">
        <ele>446.19</ele>
        <time>2009-05-19T13:31:56Z</time>
      </trkpt>
      <trkpt lat="43.93443" lon="5.22999">
        <ele>446.19</ele>
        <time>2009-05-19T13:32:11Z</time>
      </trkpt>
      <trkpt lat="43.93429" lon="5.23003">
        <ele>445.23</ele>
        <time>2009-05-19T13:32:24Z</time>
      </trkpt>
      <trkpt lat="43.93409" lon="5.23006">
        <ele>441.86</ele>
        <time>2009-05-19T13:32:41Z</time>
      </trkpt>
      <trkpt lat="43.93392" lon="5.23011">
        <ele>439.94</ele>
        <time>2009-05-19T13:33:00Z</time>
      </trkpt>
      <trkpt lat="43.93374" lon="5.23007">
        <ele>438.02</ele>
        <time>2009-05-19T13:33:18Z</time>
      </trkpt>
      <trkpt lat="43.93373" lon="5.23006">
        <ele>438.02</ele>
        <time>2009-05-19T13:33:19Z</time>
      </trkpt>
      <trkpt lat="43.93355" lon="5.23">
        <ele>436.1</ele>
        <time>2009-05-19T13:33:38Z</time>
      </trkpt>
      <trkpt lat="43.93338" lon="5.22999">
        <ele>432.25</ele>
        <time>2009-05-19T13:33:56Z</time>
      </trkpt>
      <trkpt lat="43.9332" lon="5.23004">
        <ele>431.77</ele>
        <time>2009-05-19T13:34:14Z</time>
      </trkpt>
      <trkpt lat="43.93307" lon="5.23007">
        <ele>430.81</ele>
        <time>2009-05-19T13:34:27Z</time>
      </trkpt>
      <trkpt lat="43.93297" lon="5.23007">
        <ele>429.37</ele>
        <time>2009-05-19T13:34:36Z</time>
      </trkpt>
      <trkpt lat="43.93278" lon="5.23008">
        <ele>427.92</ele>
        <time>2009-05-19T13:34:55Z</time>
      </trkpt>
      <trkpt lat="43.93261" lon="5.23009">
        <ele>426.96</ele>
        <time>2009-05-19T13:35:12Z</time>
      </trkpt>
      <trkpt lat="43.93246" lon="5.23006">
        <ele>425.04</ele>
        <time>2009-05-19T13:35:29Z</time>
      </trkpt>
      <trkpt lat="43.93238" lon="5.23008">
        <ele>424.08</ele>
        <time>2009-05-19T13:35:37Z</time>
      </trkpt>
      <trkpt lat="43.93221" lon="5.23008">
        <ele>421.68</ele>
        <time>2009-05-19T13:35:54Z</time>
      </trkpt>
      <trkpt lat="43.93209" lon="5.23014">
        <ele>419.27</ele>
        <time>2009-05-19T13:36:08Z</time>
      </trkpt>
      <trkpt lat="43.93193" lon="5.2302">
        <ele>417.35</ele>
        <time>2009-05-19T13:36:27Z</time>
      </trkpt>
      <trkpt lat="43.93181" lon="5.23026">
        <ele>416.39</ele>
        <time>2009-05-19T13:36:43Z</time>
      </trkpt>
      <trkpt lat="43.93171" lon="5.23032">
        <ele>415.43</ele>
        <time>2009-05-19T13:36:59Z</time>
      </trkpt>
      <trkpt lat="43.93159" lon="5.23038">
        <ele>413.5</ele>
        <time>2009-05-19T13:37:15Z</time>
      </trkpt>
      <trkpt lat="43.93155" lon="5.23041">
        <ele>413.02</ele>
        <time>2009-05-19T13:37:22Z</time>
      </trkpt>
      <trkpt lat="43.93146" lon="5.23047">
        <ele>412.06</ele>
        <time>2009-05-19T13:37:35Z</time>
      </trkpt>
      <trkpt lat="43.93137" lon="5.23056">
        <ele>410.14</ele>
        <time>2009-05-19T13:37:50Z</time>
      </trkpt>
      <trkpt lat="43.93136" lon="5.23081">
        <ele>409.18</ele>
        <time>2009-05-19T13:38:10Z</time>
      </trkpt>
      <trkpt lat="43.93136" lon="5.23102">
        <ele>408.7</ele>
        <time>2009-05-19T13:38:28Z</time>
      </trkpt>
      <trkpt lat="43.93136" lon="5.23108">
        <ele>408.7</ele>
        <time>2009-05-19T13:38:34Z</time>
      </trkpt>
      <trkpt lat="43.93144" lon="5.23129">
        <ele>409.18</ele>
        <time>2009-05-19T13:38:52Z</time>
      </trkpt>
      <trkpt lat="43.93148" lon="5.23149">
        <ele>406.77</ele>
        <time>2009-05-19T13:39:09Z</time>
      </trkpt>
      <trkpt lat="43.93149" lon="5.23165">
        <ele>402.93</ele>
        <time>2009-05-19T13:39:26Z</time>
      </trkpt>
      <trkpt lat="43.93149" lon="5.23184">
        <ele>400.53</ele>
        <time>2009-05-19T13:39:46Z</time>
      </trkpt>
      <trkpt lat="43.93148" lon="5.23186">
        <ele>400.05</ele>
        <time>2009-05-19T13:39:49Z</time>
      </trkpt>
      <trkpt lat="43.93139" lon="5.23205">
        <ele>396.68</ele>
        <time>2009-05-19T13:40:05Z</time>
      </trkpt>
      <trkpt lat="43.93136" lon="5.23223">
        <ele>394.28</ele>
        <time>2009-05-19T13:40:21Z</time>
      </trkpt>
      <trkpt lat="43.93139" lon="5.2324">
        <ele>393.32</ele>
        <time>2009-05-19T13:40:40Z</time>
      </trkpt>
      <trkpt lat="43.93139" lon="5.2324">
        <ele>393.32</ele>
        <time>2009-05-19T13:40:41Z</time>
      </trkpt>
      <trkpt lat="43.93142" lon="5.23258">
        <ele>391.87</ele>
        <time>2009-05-19T13:40:57Z</time>
      </trkpt>
      <trkpt lat="43.93141" lon="5.23269">
        <ele>390.43</ele>
        <time>2009-05-19T13:41:06Z</time>
      </trkpt>
      <trkpt lat="43.93134" lon="5.23286">
        <ele>386.59</ele>
        <time>2009-05-19T13:41:21Z</time>
      </trkpt>
      <trkpt lat="43.93121" lon="5.23298">
        <ele>384.18</ele>
        <time>2009-05-19T13:41:40Z</time>
      </trkpt>
      <trkpt lat="43.93121" lon="5.23298">
        <ele>384.18</ele>
        <time>2009-05-19T13:41:41Z</time>
      </trkpt>
      <trkpt lat="43.93105" lon="5.23313">
        <ele>381.78</ele>
        <time>2009-05-19T13:41:58Z</time>
      </trkpt>
      <trkpt lat="43.93096" lon="5.23325">
        <ele>379.86</ele>
        <time>2009-05-19T13:42:12Z</time>
      </trkpt>
      <trkpt lat="43.93087" lon="5.23338">
        <ele>380.34</ele>
        <time>2009-05-19T13:42:24Z</time>
      </trkpt>
      <trkpt lat="43.93076" lon="5.23358">
        <ele>378.42</ele>
        <time>2009-05-19T13:42:43Z</time>
      </trkpt>
      <trkpt lat="43.93068" lon="5.23373">
        <ele>376.97</ele>
        <time>2009-05-19T13:42:57Z</time>
      </trkpt>
      <trkpt lat="43.93063" lon="5.23381">
        <ele>376.01</ele>
        <time>2009-05-19T13:43:05Z</time>
      </trkpt>
      <trkpt lat="43.93061" lon="5.23386">
        <ele>375.53</ele>
        <time>2009-05-19T13:43:09Z</time>
      </trkpt>
      <trkpt lat="43.93054" lon="5.23399">
        <ele>373.61</ele>
        <time>2009-05-19T13:43:25Z</time>
      </trkpt>
      <trkpt lat="43.93042" lon="5.23419">
        <ele>371.69</ele>
        <time>2009-05-19T13:43:45Z</time>
      </trkpt>
      <trkpt lat="43.9304" lon="5.23422">
        <ele>370.73</ele>
        <time>2009-05-19T13:43:48Z</time>
      </trkpt>
      <trkpt lat="43.93029" lon="5.23439">
        <ele>368.32</ele>
        <time>2009-05-19T13:44:07Z</time>
      </trkpt>
      <trkpt lat="43.93028" lon="5.23441">
        <ele>368.32</ele>
        <time>2009-05-19T13:44:09Z</time>
      </trkpt>
      <trkpt lat="43.93025" lon="5.23444">
        <ele>367.84</ele>
        <time>2009-05-19T13:44:12Z</time>
      </trkpt>
      <trkpt lat="43.93021" lon="5.23449">
        <ele>366.88</ele>
        <time>2009-05-19T13:44:17Z</time>
      </trkpt>
      <trkpt lat="43.93011" lon="5.2346">
        <ele>366.4</ele>
        <time>2009-05-19T13:44:31Z</time>
      </trkpt>
      <trkpt lat="43.93005" lon="5.23467">
        <ele>365.44</ele>
        <time>2009-05-19T13:44:39Z</time>
      </trkpt>
      <trkpt lat="43.92992" lon="5.23475">
        <ele>364.96</ele>
        <time>2009-05-19T13:44:57Z</time>
      </trkpt>
      <trkpt lat="43.92981" lon="5.23484">
        <ele>363.04</ele>
        <time>2009-05-19T13:45:10Z</time>
      </trkpt>
      <trkpt lat="43.92966" lon="5.23492">
        <ele>361.11</ele>
        <time>2009-05-19T13:45:26Z</time>
      </trkpt>
      <trkpt lat="43.92962" lon="5.23494">
        <ele>360.63</ele>
        <time>2009-05-19T13:45:29Z</time>
      </trkpt>
      <trkpt lat="43.92956" lon="5.23499">
        <ele>359.67</ele>
        <time>2009-05-19T13:45:37Z</time>
      </trkpt>
      <trkpt lat="43.92942" lon="5.2351">
        <ele>357.27</ele>
        <time>2009-05-19T13:45:53Z</time>
      </trkpt>
      <trkpt lat="43.92932" lon="5.23518">
        <ele>355.34</ele>
        <time>2009-05-19T13:46:06Z</time>
      </trkpt>
      <trkpt lat="43.92921" lon="5.23532">
        <ele>353.9</ele>
        <time>2009-05-19T13:46:24Z</time>
      </trkpt>
      <trkpt lat="43.92908" lon="5.23543">
        <ele>351.98</ele>
        <time>2009-05-19T13:46:41Z</time>
      </trkpt>
      <trkpt lat="43.92903" lon="5.23546">
        <ele>351.02</ele>
        <time>2009-05-19T13:46:46Z</time>
      </trkpt>
      <trkpt lat="43.92891" lon="5.2356">
        <ele>349.1</ele>
        <time>2009-05-19T13:47:03Z</time>
      </trkpt>
      <trkpt lat="43.92888" lon="5.23562">
        <ele>348.62</ele>
        <time>2009-05-19T13:47:09Z</time>
      </trkpt>
      <trkpt lat="43.92874" lon="5.23571">
        <ele>348.13</ele>
        <time>2009-05-19T13:47:27Z</time>
      </trkpt>
      <trkpt lat="43.92864" lon="5.23583">
        <ele>346.69</ele>
        <time>2009-05-19T13:47:44Z</time>
      </trkpt>
      <trkpt lat="43.9285" lon="5.23592">
        <ele>344.77</ele>
        <time>2009-05-19T13:48:01Z</time>
      </trkpt>
      <trkpt lat="43.92842" lon="5.23603">
        <ele>343.33</ele>
        <time>2009-05-19T13:48:16Z</time>
      </trkpt>
      <trkpt lat="43.92837" lon="5.23611">
        <ele>342.37</ele>
        <time>2009-05-19T13:48:24Z</time>
      </trkpt>
      <trkpt lat="43.92829" lon="5.23628">
        <ele>340.44</ele>
        <time>2009-05-19T13:48:38Z</time>
      </trkpt>
      <trkpt lat="43.92819" lon="5.23649">
        <ele>338.52</ele>
        <time>2009-05-19T13:48:58Z</time>
      </trkpt>
      <trkpt lat="43.92806" lon="5.23665">
        <ele>336.12</ele>
        <time>2009-05-19T13:49:17Z</time>
      </trkpt>
      <trkpt lat="43.92792" lon="5.2368">
        <ele>335.16</ele>
        <time>2009-05-19T13:49:37Z</time>
      </trkpt>
      <trkpt lat="43.92785" lon="5.23687">
        <ele>334.68</ele>
        <time>2009-05-19T13:49:51Z</time>
      </trkpt>
      <trkpt lat="43.92784" lon="5.23689">
        <ele>334.68</ele>
        <time>2009-05-19T13:49:56Z</time>
      </trkpt>
      <trkpt lat="43.92771" lon="5.23702">
        <ele>333.23</ele>
        <time>2009-05-19T13:50:13Z</time>
      </trkpt>
      <trkpt lat="43.92765" lon="5.23704">
        <ele>332.75</ele>
        <time>2009-05-19T13:50:29Z</time>
      </trkpt>
      <trkpt lat="43.92764" lon="5.23705">
        <ele>333.71</ele>
        <time>2009-05-19T13:50:53Z</time>
      </trkpt>
      <trkpt lat="43.92766" lon="5.23708">
        <ele>333.71</ele>
        <time>2009-05-19T13:51:09Z</time>
      </trkpt>
      <trkpt lat="43.92767" lon="5.2371">
        <ele>333.23</ele>
        <time>2009-05-19T13:51:39Z</time>
      </trkpt>
      <trkpt lat="43.92761" lon="5.23718">
        <ele>331.79</ele>
        <time>2009-05-19T13:51:54Z</time>
      </trkpt>
      <trkpt lat="43.9276" lon="5.23732">
        <ele>330.83</ele>
        <time>2009-05-19T13:52:06Z</time>
      </trkpt>
      <trkpt lat="43.92761" lon="5.23764">
        <ele>329.39</ele>
        <time>2009-05-19T13:52:27Z</time>
      </trkpt>
      <trkpt lat="43.92761" lon="5.23782">
        <ele>329.87</ele>
        <time>2009-05-19T13:52:39Z</time>
      </trkpt>
      <trkpt lat="43.92764" lon="5.23806">
        <ele>329.87</ele>
        <time>2009-05-19T13:52:56Z</time>
      </trkpt>
      <trkpt lat="43.92765" lon="5.23835">
        <ele>327.95</ele>
        <time>2009-05-19T13:53:14Z</time>
      </trkpt>
      <trkpt lat="43.9276" lon="5.23863">
        <ele>326.5</ele>
        <time>2009-05-19T13:53:31Z</time>
      </trkpt>
      <trkpt lat="43.9275" lon="5.23886">
        <ele>324.58</ele>
        <time>2009-05-19T13:53:46Z</time>
      </trkpt>
      <trkpt lat="43.9274" lon="5.23896">
        <ele>322.66</ele>
        <time>2009-05-19T13:53:57Z</time>
      </trkpt>
      <trkpt lat="43.92732" lon="5.23923">
        <ele>321.7</ele>
        <time>2009-05-19T13:54:14Z</time>
      </trkpt>
      <trkpt lat="43.92727" lon="5.23949">
        <ele>320.26</ele>
        <time>2009-05-19T13:54:29Z</time>
      </trkpt>
      <trkpt lat="43.92723" lon="5.23958">
        <ele>319.78</ele>
        <time>2009-05-19T13:54:34Z</time>
      </trkpt>
      <trkpt lat="43.92716" lon="5.2399">
        <ele>317.85</ele>
        <time>2009-05-19T13:54:54Z</time>
      </trkpt>
      <trkpt lat="43.92712" lon="5.24017">
        <ele>318.33</ele>
        <time>2009-05-19T13:55:10Z</time>
      </trkpt>
      <trkpt lat="43.92714" lon="5.24042">
        <ele>316.89</ele>
        <time>2009-05-19T13:55:25Z</time>
      </trkpt>
      <trkpt lat="43.92707" lon="5.24065">
        <ele>313.05</ele>
        <time>2009-05-19T13:55:42Z</time>
      </trkpt>
      <trkpt lat="43.92692" lon="5.24084">
        <ele>311.12</ele>
        <time>2009-05-19T13:56:00Z</time>
      </trkpt>
      <trkpt lat="43.92684" lon="5.24107">
        <ele>309.68</ele>
        <time>2009-05-19T13:56:18Z</time>
      </trkpt>
      <trkpt lat="43.92687" lon="5.24134">
        <ele>309.68</ele>
        <time>2009-05-19T13:56:38Z</time>
      </trkpt>
      <trkpt lat="43.92686" lon="5.24158">
        <ele>309.2</ele>
        <time>2009-05-19T13:56:54Z</time>
      </trkpt>
      <trkpt lat="43.92679" lon="5.24188">
        <ele>307.28</ele>
        <time>2009-05-19T13:57:13Z</time>
      </trkpt>
      <trkpt lat="43.92674" lon="5.24218">
        <ele>306.32</ele>
        <time>2009-05-19T13:57:34Z</time>
      </trkpt>
      <trkpt lat="43.9267" lon="5.24246">
        <ele>305.84</ele>
        <time>2009-05-19T13:57:55Z</time>
      </trkpt>
      <trkpt lat="43.9267" lon="5.24247">
        <ele>305.84</ele>
        <time>2009-05-19T13:57:56Z</time>
      </trkpt>
      <trkpt lat="43.92674" lon="5.24276">
        <ele>306.8</ele>
        <time>2009-05-19T13:58:17Z</time>
      </trkpt>
      <trkpt lat="43.92677" lon="5.24304">
        <ele>305.84</ele>
        <time>2009-05-19T13:58:37Z</time>
      </trkpt>
      <trkpt lat="43.92671" lon="5.24331">
        <ele>303.91</ele>
        <time>2009-05-19T13:58:57Z</time>
      </trkpt>
      <trkpt lat="43.92662" lon="5.24361">
        <ele>301.03</ele>
        <time>2009-05-19T13:59:18Z</time>
      </trkpt>
      <trkpt lat="43.92653" lon="5.24385">
        <ele>298.63</ele>
        <time>2009-05-19T13:59:37Z</time>
      </trkpt>
      <trkpt lat="43.92643" lon="5.24411">
        <ele>296.7</ele>
        <time>2009-05-19T13:59:58Z</time>
      </trkpt>
      <trkpt lat="43.92638" lon="5.24438">
        <ele>295.74</ele>
        <time>2009-05-19T14:00:18Z</time>
      </trkpt>
      <trkpt lat="43.9264" lon="5.24462">
        <ele>296.22</ele>
        <time>2009-05-19T14:00:37Z</time>
      </trkpt>
      <trkpt lat="43.92637" lon="5.24488">
        <ele>294.3</ele>
        <time>2009-05-19T14:00:56Z</time>
      </trkpt>
      <trkpt lat="43.92632" lon="5.24514">
        <ele>293.34</ele>
        <time>2009-05-19T14:01:18Z</time>
      </trkpt>
      <trkpt lat="43.92631" lon="5.24531">
        <ele>292.38</ele>
        <time>2009-05-19T14:01:32Z</time>
      </trkpt>
      <trkpt lat="43.9263" lon="5.24558">
        <ele>291.9</ele>
        <time>2009-05-19T14:01:56Z</time>
      </trkpt>
      <trkpt lat="43.92627" lon="5.24571">
        <ele>290.94</ele>
        <time>2009-05-19T14:02:07Z</time>
      </trkpt>
      <trkpt lat="43.9263" lon="5.24598">
        <ele>289.49</ele>
        <time>2009-05-19T14:02:27Z</time>
      </trkpt>
      <trkpt lat="43.92631" lon="5.24606">
        <ele>288.05</ele>
        <time>2009-05-19T14:02:33Z</time>
      </trkpt>
      <trkpt lat="43.9263" lon="5.24624">
        <ele>288.53</ele>
        <time>2009-05-19T14:02:48Z</time>
      </trkpt>
      <trkpt lat="43.92631" lon="5.24629">
        <ele>288.53</ele>
        <time>2009-05-19T14:02:51Z</time>
      </trkpt>
      <trkpt lat="43.9263" lon="5.2467">
        <ele>288.05</ele>
        <time>2009-05-19T14:03:17Z</time>
      </trkpt>
      <trkpt lat="43.92627" lon="5.24704">
        <ele>287.09</ele>
        <time>2009-05-19T14:03:39Z</time>
      </trkpt>
      <trkpt lat="43.92625" lon="5.24735">
        <ele>286.13</ele>
        <time>2009-05-19T14:03:59Z</time>
      </trkpt>
      <trkpt lat="43.92624" lon="5.24763">
        <ele>285.65</ele>
        <time>2009-05-19T14:04:17Z</time>
      </trkpt>
      <trkpt lat="43.92624" lon="5.24794">
        <ele>285.17</ele>
        <time>2009-05-19T14:04:37Z</time>
      </trkpt>
      <trkpt lat="43.92633" lon="5.24834">
        <ele>284.21</ele>
        <time>2009-05-19T14:05:05Z</time>
      </trkpt>
      <trkpt lat="43.92645" lon="5.24867">
        <ele>282.28</ele>
        <time>2009-05-19T14:05:29Z</time>
      </trkpt>
      <trkpt lat="43.92652" lon="5.24899">
        <ele>281.8</ele>
        <time>2009-05-19T14:05:52Z</time>
      </trkpt>
      <trkpt lat="43.92661" lon="5.2492">
        <ele>282.28</ele>
        <time>2009-05-19T14:06:12Z</time>
      </trkpt>
      <trkpt lat="43.92667" lon="5.24947">
        <ele>280.36</ele>
        <time>2009-05-19T14:06:34Z</time>
      </trkpt>
      <trkpt lat="43.92667" lon="5.24962">
        <ele>278.44</ele>
        <time>2009-05-19T14:06:53Z</time>
      </trkpt>
      <trkpt lat="43.92668" lon="5.24972">
        <ele>278.92</ele>
        <time>2009-05-19T14:07:08Z</time>
      </trkpt>
      <trkpt lat="43.92666" lon="5.24996">
        <ele>278.92</ele>
        <time>2009-05-19T14:07:27Z</time>
      </trkpt>
      <trkpt lat="43.92663" lon="5.25026">
        <ele>280.36</ele>
        <time>2009-05-19T14:07:47Z</time>
      </trkpt>
      <trkpt lat="43.92666" lon="5.25059">
        <ele>278.44</ele>
        <time>2009-05-19T14:08:10Z</time>
      </trkpt>
      <trkpt lat="43.92667" lon="5.25082">
        <ele>276.04</ele>
        <time>2009-05-19T14:08:30Z</time>
      </trkpt>
      <trkpt lat="43.92667" lon="5.25084">
        <ele>276.52</ele>
        <time>2009-05-19T14:08:31Z</time>
      </trkpt>
      <trkpt lat="43.92647" lon="5.25103">
        <ele>272.67</ele>
        <time>2009-05-19T14:08:53Z</time>
      </trkpt>
      <trkpt lat="43.92626" lon="5.25123">
        <ele>272.19</ele>
        <time>2009-05-19T14:09:14Z</time>
      </trkpt>
      <trkpt lat="43.92618" lon="5.25131">
        <ele>271.71</ele>
        <time>2009-05-19T14:09:23Z</time>
      </trkpt>
      <trkpt lat="43.92614" lon="5.2514">
        <ele>271.71</ele>
        <time>2009-05-19T14:09:30Z</time>
      </trkpt>
      <trkpt lat="43.9261" lon="5.25149">
        <ele>273.15</ele>
        <time>2009-05-19T14:09:39Z</time>
      </trkpt>
      <trkpt lat="43.92605" lon="5.25159">
        <ele>275.56</ele>
        <time>2009-05-19T14:09:55Z</time>
      </trkpt>
      <trkpt lat="43.92601" lon="5.25171">
        <ele>266.9</ele>
        <time>2009-05-19T14:10:38Z</time>
      </trkpt>
      <trkpt lat="43.92596" lon="5.25176">
        <ele>267.38</ele>
        <time>2009-05-19T14:10:56Z</time>
      </trkpt>
      <trkpt lat="43.92595" lon="5.25175">
        <ele>283.25</ele>
        <time>2009-05-19T14:11:35Z</time>
      </trkpt>
      <trkpt lat="43.92593" lon="5.25175">
        <ele>280.84</ele>
        <time>2009-05-19T14:12:03Z</time>
      </trkpt>
      <trkpt lat="43.92587" lon="5.25163">
        <ele>270.75</ele>
        <time>2009-05-19T14:12:56Z</time>
      </trkpt>
      <trkpt lat="43.92585" lon="5.25154">
        <ele>260.17</ele>
        <time>2009-05-19T14:13:25Z</time>
      </trkpt>
      <trkpt lat="43.92582" lon="5.25145">
        <ele>255.37</ele>
        <time>2009-05-19T14:13:39Z</time>
      </trkpt>
      <trkpt lat="43.9258" lon="5.25151">
        <ele>248.64</ele>
        <time>2009-05-19T14:13:55Z</time>
      </trkpt>
      <trkpt lat="43.9258" lon="5.2516">
        <ele>249.6</ele>
        <time>2009-05-19T14:14:06Z</time>
      </trkpt>
      <trkpt lat="43.9258" lon="5.2517">
        <ele>247.2</ele>
        <time>2009-05-19T14:14:16Z</time>
      </trkpt>
      <trkpt lat="43.92582" lon="5.2518">
        <ele>244.31</ele>
        <time>2009-05-19T14:14:27Z</time>
      </trkpt>
      <trkpt lat="43.9258" lon="5.25191">
        <ele>243.83</ele>
        <time>2009-05-19T14:14:40Z</time>
      </trkpt>
      <trkpt lat="43.92579" lon="5.25192">
        <ele>243.35</ele>
        <time>2009-05-19T14:14:41Z</time>
      </trkpt>
      <trkpt lat="43.9257" lon="5.25198">
        <ele>238.54</ele>
        <time>2009-05-19T14:14:53Z</time>
      </trkpt>
      <trkpt lat="43.92568" lon="5.25202">
        <ele>228.93</ele>
        <time>2009-05-19T14:15:21Z</time>
      </trkpt>
      <trkpt lat="43.92565" lon="5.25201">
        <ele>230.85</ele>
        <time>2009-05-19T14:15:41Z</time>
      </trkpt>
      <trkpt lat="43.92566" lon="5.25197">
        <ele>235.66</ele>
        <time>2009-05-19T14:16:00Z</time>
      </trkpt>
      <trkpt lat="43.92566" lon="5.25196">
        <ele>257.29</ele>
        <time>2009-05-19T14:16:30Z</time>
      </trkpt>
      <trkpt lat="43.92563" lon="5.25204">
        <ele>252</ele>
        <time>2009-05-19T14:16:50Z</time>
      </trkpt>
      <trkpt lat="43.92564" lon="5.25213">
        <ele>251.04</ele>
        <time>2009-05-19T14:17:01Z</time>
      </trkpt>
      <trkpt lat="43.92569" lon="5.25222">
        <ele>250.56</ele>
        <time>2009-05-19T14:17:13Z</time>
      </trkpt>
      <trkpt lat="43.92569" lon="5.25233">
        <ele>246.23</ele>
        <time>2009-05-19T14:17:25Z</time>
      </trkpt>
      <trkpt lat="43.9257" lon="5.25246">
        <ele>244.79</ele>
        <time>2009-05-19T14:17:39Z</time>
      </trkpt>
      <trkpt lat="43.92573" lon="5.25252">
        <ele>248.64</ele>
        <time>2009-05-19T14:17:55Z</time>
      </trkpt>
      <trkpt lat="43.92574" lon="5.25268">
        <ele>245.75</ele>
        <time>2009-05-19T14:18:14Z</time>
      </trkpt>
      <trkpt lat="43.92574" lon="5.25292">
        <ele>239.02</ele>
        <time>2009-05-19T14:18:36Z</time>
      </trkpt>
      <trkpt lat="43.92568" lon="5.253">
        <ele>237.58</ele>
        <time>2009-05-19T14:18:57Z</time>
      </trkpt>
      <trkpt lat="43.92566" lon="5.25303">
        <ele>239.02</ele>
        <time>2009-05-19T14:19:22Z</time>
      </trkpt>
      <trkpt lat="43.9257" lon="5.25296">
        <ele>239.02</ele>
        <time>2009-05-19T14:19:38Z</time>
      </trkpt>
      <trkpt lat="43.92566" lon="5.25294">
        <ele>234.22</ele>
        <time>2009-05-19T14:20:07Z</time>
      </trkpt>
      <trkpt lat="43.92567" lon="5.25295">
        <ele>233.74</ele>
        <time>2009-05-19T14:20:43Z</time>
      </trkpt>
      <trkpt lat="43.92565" lon="5.25294">
        <ele>230.85</ele>
        <time>2009-05-19T14:20:59Z</time>
      </trkpt>
      <trkpt lat="43.92566" lon="5.25298">
        <ele>231.81</ele>
        <time>2009-05-19T14:21:18Z</time>
      </trkpt>
      <trkpt lat="43.92568" lon="5.25301">
        <ele>233.74</ele>
        <time>2009-05-19T14:21:31Z</time>
      </trkpt>
      <trkpt lat="43.92571" lon="5.25301">
        <ele>236.14</ele>
        <time>2009-05-19T14:21:53Z</time>
      </trkpt>
      <trkpt lat="43.92568" lon="5.253">
        <ele>235.18</ele>
        <time>2009-05-19T14:23:57Z</time>
      </trkpt>
      <trkpt lat="43.92567" lon="5.253">
        <ele>234.22</ele>
        <time>2009-05-19T14:24:18Z</time>
      </trkpt>
      <trkpt lat="43.92567" lon="5.25247">
        <ele>284.21</ele>
        <time>2009-05-19T14:49:44Z</time>
      </trkpt>
      <trkpt lat="43.92571" lon="5.25232">
        <ele>254.89</ele>
        <time>2009-05-19T14:49:55Z</time>
      </trkpt>
      <trkpt lat="43.92571" lon="5.25224">
        <ele>241.43</ele>
        <time>2009-05-19T14:50:02Z</time>
      </trkpt>
      <trkpt lat="43.92565" lon="5.25228">
        <ele>231.81</ele>
        <time>2009-05-19T14:50:09Z</time>
      </trkpt>
      <trkpt lat="43.92566" lon="5.25226">
        <ele>232.3</ele>
        <time>2009-05-19T14:50:12Z</time>
      </trkpt>
      <trkpt lat="43.92564" lon="5.25224">
        <ele>233.74</ele>
        <time>2009-05-19T14:50:17Z</time>
      </trkpt>
      <trkpt lat="43.92556" lon="5.25212">
        <ele>234.7</ele>
        <time>2009-05-19T14:50:29Z</time>
      </trkpt>
      <trkpt lat="43.9257" lon="5.25198">
        <ele>239.99</ele>
        <time>2009-05-19T14:50:36Z</time>
      </trkpt>
      <trkpt lat="43.92555" lon="5.25189">
        <ele>238.54</ele>
        <time>2009-05-19T14:50:51Z</time>
      </trkpt>
      <trkpt lat="43.92549" lon="5.25177">
        <ele>241.43</ele>
        <time>2009-05-19T14:51:06Z</time>
      </trkpt>
      <trkpt lat="43.92544" lon="5.25167">
        <ele>246.23</ele>
        <time>2009-05-19T14:51:19Z</time>
      </trkpt>
      <trkpt lat="43.92537" lon="5.25148">
        <ele>261.14</ele>
        <time>2009-05-19T14:51:33Z</time>
      </trkpt>
      <trkpt lat="43.92535" lon="5.25133">
        <ele>260.17</ele>
        <time>2009-05-19T14:51:45Z</time>
      </trkpt>
      <trkpt lat="43.92529" lon="5.25119">
        <ele>260.17</ele>
        <time>2009-05-19T14:51:59Z</time>
      </trkpt>
      <trkpt lat="43.92527" lon="5.25115">
        <ele>260.17</ele>
        <time>2009-05-19T14:52:02Z</time>
      </trkpt>
      <trkpt lat="43.92522" lon="5.25104">
        <ele>252.48</ele>
        <time>2009-05-19T14:52:12Z</time>
      </trkpt>
      <trkpt lat="43.92519" lon="5.25101">
        <ele>249.6</ele>
        <time>2009-05-19T14:52:16Z</time>
      </trkpt>
      <trkpt lat="43.92511" lon="5.25086">
        <ele>243.35</ele>
        <time>2009-05-19T14:52:31Z</time>
      </trkpt>
      <trkpt lat="43.92504" lon="5.25074">
        <ele>236.62</ele>
        <time>2009-05-19T14:52:41Z</time>
      </trkpt>
      <trkpt lat="43.92503" lon="5.25072">
        <ele>237.58</ele>
        <time>2009-05-19T14:52:43Z</time>
      </trkpt>
      <trkpt lat="43.92499" lon="5.25065">
        <ele>236.62</ele>
        <time>2009-05-19T14:52:47Z</time>
      </trkpt>
      <trkpt lat="43.92489" lon="5.25056">
        <ele>231.33</ele>
        <time>2009-05-19T14:52:55Z</time>
      </trkpt>
      <trkpt lat="43.92475" lon="5.25035">
        <ele>229.89</ele>
        <time>2009-05-19T14:53:11Z</time>
      </trkpt>
      <trkpt lat="43.92473" lon="5.25032">
        <ele>230.37</ele>
        <time>2009-05-19T14:53:14Z</time>
      </trkpt>
      <trkpt lat="43.92455" lon="5.25016">
        <ele>231.81</ele>
        <time>2009-05-19T14:53:27Z</time>
      </trkpt>
      <trkpt lat="43.92453" lon="5.25014">
        <ele>232.3</ele>
        <time>2009-05-19T14:53:28Z</time>
      </trkpt>
      <trkpt lat="43.92437" lon="5.24994">
        <ele>232.78</ele>
        <time>2009-05-19T14:53:44Z</time>
      </trkpt>
      <trkpt lat="43.92429" lon="5.24977">
        <ele>228.45</ele>
        <time>2009-05-19T14:53:55Z</time>
      </trkpt>
      <trkpt lat="43.92414" lon="5.24955">
        <ele>230.37</ele>
        <time>2009-05-19T14:54:13Z</time>
      </trkpt>
      <trkpt lat="43.92412" lon="5.24952">
        <ele>230.37</ele>
        <time>2009-05-19T14:54:16Z</time>
      </trkpt>
      <trkpt lat="43.92392" lon="5.24934">
        <ele>235.66</ele>
        <time>2009-05-19T14:54:33Z</time>
      </trkpt>
      <trkpt lat="43.92379" lon="5.24922">
        <ele>238.54</ele>
        <time>2009-05-19T14:54:47Z</time>
      </trkpt>
      <trkpt lat="43.92363" lon="5.24907">
        <ele>237.58</ele>
        <time>2009-05-19T14:55:03Z</time>
      </trkpt>
      <trkpt lat="43.92361" lon="5.24888">
        <ele>226.05</ele>
        <time>2009-05-19T14:55:16Z</time>
      </trkpt>
      <trkpt lat="43.92354" lon="5.24867">
        <ele>227.01</ele>
        <time>2009-05-19T14:55:31Z</time>
      </trkpt>
      <trkpt lat="43.92355" lon="5.24861">
        <ele>227.01</ele>
        <time>2009-05-19T14:55:34Z</time>
      </trkpt>
      <trkpt lat="43.92352" lon="5.24828">
        <ele>229.89</ele>
        <time>2009-05-19T14:55:53Z</time>
      </trkpt>
      <trkpt lat="43.92346" lon="5.24807">
        <ele>227.97</ele>
        <time>2009-05-19T14:56:09Z</time>
      </trkpt>
      <trkpt lat="43.92336" lon="5.24782">
        <ele>229.89</ele>
        <time>2009-05-19T14:56:27Z</time>
      </trkpt>
      <trkpt lat="43.92332" lon="5.24775">
        <ele>231.81</ele>
        <time>2009-05-19T14:56:33Z</time>
      </trkpt>
      <trkpt lat="43.92329" lon="5.24768">
        <ele>232.3</ele>
        <time>2009-05-19T14:56:39Z</time>
      </trkpt>
      <trkpt lat="43.92322" lon="5.24746">
        <ele>228.45</ele>
        <time>2009-05-19T14:56:55Z</time>
      </trkpt>
      <trkpt lat="43.92314" lon="5.24734">
        <ele>224.12</ele>
        <time>2009-05-19T14:57:07Z</time>
      </trkpt>
      <trkpt lat="43.92304" lon="5.24723">
        <ele>225.57</ele>
        <time>2009-05-19T14:57:20Z</time>
      </trkpt>
      <trkpt lat="43.92295" lon="5.24707">
        <ele>225.57</ele>
        <time>2009-05-19T14:57:34Z</time>
      </trkpt>
      <trkpt lat="43.92293" lon="5.24705">
        <ele>225.57</ele>
        <time>2009-05-19T14:57:36Z</time>
      </trkpt>
      <trkpt lat="43.92282" lon="5.24694">
        <ele>223.16</ele>
        <time>2009-05-19T14:57:48Z</time>
      </trkpt>
      <trkpt lat="43.92275" lon="5.24684">
        <ele>218.84</ele>
        <time>2009-05-19T14:57:57Z</time>
      </trkpt>
      <trkpt lat="43.92263" lon="5.2467">
        <ele>220.28</ele>
        <time>2009-05-19T14:58:14Z</time>
      </trkpt>
      <trkpt lat="43.92249" lon="5.2466">
        <ele>222.68</ele>
        <time>2009-05-19T14:58:30Z</time>
      </trkpt>
      <trkpt lat="43.92236" lon="5.24652">
        <ele>222.2</ele>
        <time>2009-05-19T14:58:44Z</time>
      </trkpt>
      <trkpt lat="43.92223" lon="5.24642">
        <ele>219.32</ele>
        <time>2009-05-19T14:58:57Z</time>
      </trkpt>
      <trkpt lat="43.92221" lon="5.2464">
        <ele>219.8</ele>
        <time>2009-05-19T14:59:00Z</time>
      </trkpt>
      <trkpt lat="43.92206" lon="5.2463">
        <ele>221.72</ele>
        <time>2009-05-19T14:59:17Z</time>
      </trkpt>
      <trkpt lat="43.92191" lon="5.24616">
        <ele>218.36</ele>
        <time>2009-05-19T14:59:36Z</time>
      </trkpt>
      <trkpt lat="43.92177" lon="5.24605">
        <ele>214.03</ele>
        <time>2009-05-19T14:59:52Z</time>
      </trkpt>
      <trkpt lat="43.92161" lon="5.24589">
        <ele>210.67</ele>
        <time>2009-05-19T15:00:10Z</time>
      </trkpt>
      <trkpt lat="43.92161" lon="5.24588">
        <ele>210.19</ele>
        <time>2009-05-19T15:00:11Z</time>
      </trkpt>
      <trkpt lat="43.92149" lon="5.24569">
        <ele>206.82</ele>
        <time>2009-05-19T15:00:28Z</time>
      </trkpt>
      <trkpt lat="43.92143" lon="5.24548">
        <ele>207.78</ele>
        <time>2009-05-19T15:00:44Z</time>
      </trkpt>
      <trkpt lat="43.92142" lon="5.24544">
        <ele>207.3</ele>
        <time>2009-05-19T15:00:47Z</time>
      </trkpt>
      <trkpt lat="43.92137" lon="5.24523">
        <ele>206.82</ele>
        <time>2009-05-19T15:01:02Z</time>
      </trkpt>
      <trkpt lat="43.92134" lon="5.2451">
        <ele>207.3</ele>
        <time>2009-05-19T15:01:12Z</time>
      </trkpt>
      <trkpt lat="43.92131" lon="5.24506">
        <ele>206.82</ele>
        <time>2009-05-19T15:01:16Z</time>
      </trkpt>
      <trkpt lat="43.92126" lon="5.2449">
        <ele>207.3</ele>
        <time>2009-05-19T15:01:27Z</time>
      </trkpt>
      <trkpt lat="43.92123" lon="5.24485">
        <ele>207.78</ele>
        <time>2009-05-19T15:01:31Z</time>
      </trkpt>
      <trkpt lat="43.92112" lon="5.2446">
        <ele>206.82</ele>
        <time>2009-05-19T15:01:49Z</time>
      </trkpt>
      <trkpt lat="43.92105" lon="5.24443">
        <ele>208.26</ele>
        <time>2009-05-19T15:02:02Z</time>
      </trkpt>
      <trkpt lat="43.92099" lon="5.24427">
        <ele>205.38</ele>
        <time>2009-05-19T15:02:14Z</time>
      </trkpt>
      <trkpt lat="43.92091" lon="5.24412">
        <ele>206.34</ele>
        <time>2009-05-19T15:02:27Z</time>
      </trkpt>
      <trkpt lat="43.92079" lon="5.24395">
        <ele>203.94</ele>
        <time>2009-05-19T15:02:44Z</time>
      </trkpt>
      <trkpt lat="43.92065" lon="5.24379">
        <ele>201.53</ele>
        <time>2009-05-19T15:03:01Z</time>
      </trkpt>
      <trkpt lat="43.92064" lon="5.24377">
        <ele>201.05</ele>
        <time>2009-05-19T15:03:03Z</time>
      </trkpt>
      <trkpt lat="43.92062" lon="5.24375">
        <ele>202.49</ele>
        <time>2009-05-19T15:03:06Z</time>
      </trkpt>
      <trkpt lat="43.92051" lon="5.24365">
        <ele>204.42</ele>
        <time>2009-05-19T15:03:21Z</time>
      </trkpt>
      <trkpt lat="43.92039" lon="5.24351">
        <ele>204.9</ele>
        <time>2009-05-19T15:03:37Z</time>
      </trkpt>
      <trkpt lat="43.92029" lon="5.24336">
        <ele>204.9</ele>
        <time>2009-05-19T15:03:51Z</time>
      </trkpt>
      <trkpt lat="43.92018" lon="5.24316">
        <ele>204.9</ele>
        <time>2009-05-19T15:04:09Z</time>
      </trkpt>
      <trkpt lat="43.92012" lon="5.24307">
        <ele>202.01</ele>
        <time>2009-05-19T15:04:18Z</time>
      </trkpt>
      <trkpt lat="43.92" lon="5.24286">
        <ele>199.61</ele>
        <time>2009-05-19T15:04:36Z</time>
      </trkpt>
      <trkpt lat="43.91991" lon="5.2427">
        <ele>201.05</ele>
        <time>2009-05-19T15:04:51Z</time>
      </trkpt>
      <trkpt lat="43.91983" lon="5.24252">
        <ele>203.46</ele>
        <time>2009-05-19T15:05:07Z</time>
      </trkpt>
      <trkpt lat="43.91978" lon="5.24244">
        <ele>202.98</ele>
        <time>2009-05-19T15:05:19Z</time>
      </trkpt>
      <trkpt lat="43.91964" lon="5.24224">
        <ele>207.3</ele>
        <time>2009-05-19T15:05:37Z</time>
      </trkpt>
      <trkpt lat="43.91952" lon="5.24204">
        <ele>206.82</ele>
        <time>2009-05-19T15:05:55Z</time>
      </trkpt>
      <trkpt lat="43.91942" lon="5.24188">
        <ele>207.3</ele>
        <time>2009-05-19T15:06:10Z</time>
      </trkpt>
      <trkpt lat="43.91929" lon="5.24161">
        <ele>204.9</ele>
        <time>2009-05-19T15:06:31Z</time>
      </trkpt>
      <trkpt lat="43.91919" lon="5.2414">
        <ele>209.22</ele>
        <time>2009-05-19T15:06:47Z</time>
      </trkpt>
      <trkpt lat="43.91908" lon="5.2412">
        <ele>203.46</ele>
        <time>2009-05-19T15:07:05Z</time>
      </trkpt>
      <trkpt lat="43.91901" lon="5.24098">
        <ele>204.42</ele>
        <time>2009-05-19T15:07:21Z</time>
      </trkpt>
      <trkpt lat="43.91896" lon="5.24081">
        <ele>205.86</ele>
        <time>2009-05-19T15:07:36Z</time>
      </trkpt>
      <trkpt lat="43.91894" lon="5.24054">
        <ele>207.3</ele>
        <time>2009-05-19T15:07:55Z</time>
      </trkpt>
      <trkpt lat="43.91895" lon="5.24033">
        <ele>204.42</ele>
        <time>2009-05-19T15:08:08Z</time>
      </trkpt>
      <trkpt lat="43.91892" lon="5.24018">
        <ele>205.86</ele>
        <time>2009-05-19T15:08:19Z</time>
      </trkpt>
      <trkpt lat="43.91891" lon="5.24016">
        <ele>206.34</ele>
        <time>2009-05-19T15:08:21Z</time>
      </trkpt>
      <trkpt lat="43.91883" lon="5.2399">
        <ele>204.9</ele>
        <time>2009-05-19T15:08:40Z</time>
      </trkpt>
      <trkpt lat="43.91878" lon="5.23974">
        <ele>206.34</ele>
        <time>2009-05-19T15:08:51Z</time>
      </trkpt>
      <trkpt lat="43.91877" lon="5.2397">
        <ele>206.82</ele>
        <time>2009-05-19T15:08:54Z</time>
      </trkpt>
      <trkpt lat="43.91867" lon="5.23946">
        <ele>204.9</ele>
        <time>2009-05-19T15:09:12Z</time>
      </trkpt>
      <trkpt lat="43.91862" lon="5.23928">
        <ele>206.34</ele>
        <time>2009-05-19T15:09:24Z</time>
      </trkpt>
      <trkpt lat="43.91859" lon="5.23922">
        <ele>206.34</ele>
        <time>2009-05-19T15:09:28Z</time>
      </trkpt>
      <trkpt lat="43.91853" lon="5.23901">
        <ele>203.46</ele>
        <time>2009-05-19T15:09:45Z</time>
      </trkpt>
      <trkpt lat="43.91849" lon="5.23883">
        <ele>198.65</ele>
        <time>2009-05-19T15:09:57Z</time>
      </trkpt>
      <trkpt lat="43.91847" lon="5.23874">
        <ele>199.61</ele>
        <time>2009-05-19T15:10:02Z</time>
      </trkpt>
      <trkpt lat="43.91843" lon="5.23858">
        <ele>200.09</ele>
        <time>2009-05-19T15:10:13Z</time>
      </trkpt>
      <trkpt lat="43.91839" lon="5.23836">
        <ele>204.9</ele>
        <time>2009-05-19T15:10:29Z</time>
      </trkpt>
      <trkpt lat="43.91838" lon="5.23833">
        <ele>205.86</ele>
        <time>2009-05-19T15:10:32Z</time>
      </trkpt>
      <trkpt lat="43.91826" lon="5.23814">
        <ele>204.9</ele>
        <time>2009-05-19T15:10:49Z</time>
      </trkpt>
      <trkpt lat="43.91821" lon="5.23805">
        <ele>206.82</ele>
        <time>2009-05-19T15:10:58Z</time>
      </trkpt>
      <trkpt lat="43.91811" lon="5.23775">
        <ele>203.46</ele>
        <time>2009-05-19T15:11:17Z</time>
      </trkpt>
      <trkpt lat="43.91809" lon="5.23765">
        <ele>203.94</ele>
        <time>2009-05-19T15:11:24Z</time>
      </trkpt>
      <trkpt lat="43.91802" lon="5.23749">
        <ele>203.94</ele>
        <time>2009-05-19T15:11:39Z</time>
      </trkpt>
      <trkpt lat="43.91796" lon="5.23737">
        <ele>202.49</ele>
        <time>2009-05-19T15:11:48Z</time>
      </trkpt>
      <trkpt lat="43.91788" lon="5.2372">
        <ele>206.82</ele>
        <time>2009-05-19T15:12:02Z</time>
      </trkpt>
      <trkpt lat="43.91787" lon="5.23717">
        <ele>206.34</ele>
        <time>2009-05-19T15:12:04Z</time>
      </trkpt>
      <trkpt lat="43.91782" lon="5.237">
        <ele>206.34</ele>
        <time>2009-05-19T15:12:17Z</time>
      </trkpt>
      <trkpt lat="43.91772" lon="5.23683">
        <ele>202.98</ele>
        <time>2009-05-19T15:12:31Z</time>
      </trkpt>
      <trkpt lat="43.91758" lon="5.23665">
        <ele>210.67</ele>
        <time>2009-05-19T15:12:47Z</time>
      </trkpt>
      <trkpt lat="43.9175" lon="5.23645">
        <ele>216.43</ele>
        <time>2009-05-19T15:13:04Z</time>
      </trkpt>
      <trkpt lat="43.91744" lon="5.23619">
        <ele>211.15</ele>
        <time>2009-05-19T15:13:21Z</time>
      </trkpt>
      <trkpt lat="43.91743" lon="5.2361">
        <ele>205.86</ele>
        <time>2009-05-19T15:13:27Z</time>
      </trkpt>
      <trkpt lat="43.91742" lon="5.23602">
        <ele>201.53</ele>
        <time>2009-05-19T15:13:31Z</time>
      </trkpt>
      <trkpt lat="43.91736" lon="5.23584">
        <ele>202.98</ele>
        <time>2009-05-19T15:13:43Z</time>
      </trkpt>
      <trkpt lat="43.91735" lon="5.23578">
        <ele>202.01</ele>
        <time>2009-05-19T15:13:47Z</time>
      </trkpt>
      <trkpt lat="43.91728" lon="5.23564">
        <ele>204.42</ele>
        <time>2009-05-19T15:13:57Z</time>
      </trkpt>
      <trkpt lat="43.91727" lon="5.23561">
        <ele>205.38</ele>
        <time>2009-05-19T15:13:59Z</time>
      </trkpt>
      <trkpt lat="43.91724" lon="5.23553">
        <ele>204.9</ele>
        <time>2009-05-19T15:14:04Z</time>
      </trkpt>
      <trkpt lat="43.91722" lon="5.23543">
        <ele>204.9</ele>
        <time>2009-05-19T15:14:10Z</time>
      </trkpt>
      <trkpt lat="43.9172" lon="5.23523">
        <ele>199.13</ele>
        <time>2009-05-19T15:14:24Z</time>
      </trkpt>
      <trkpt lat="43.91716" lon="5.23511">
        <ele>202.01</ele>
        <time>2009-05-19T15:14:32Z</time>
      </trkpt>
      <trkpt lat="43.91711" lon="5.23488">
        <ele>202.01</ele>
        <time>2009-05-19T15:14:47Z</time>
      </trkpt>
      <trkpt lat="43.91708" lon="5.23465">
        <ele>201.05</ele>
        <time>2009-05-19T15:15:03Z</time>
      </trkpt>
      <trkpt lat="43.91706" lon="5.2344">
        <ele>201.05</ele>
        <time>2009-05-19T15:15:19Z</time>
      </trkpt>
      <trkpt lat="43.91705" lon="5.23419">
        <ele>205.38</ele>
        <time>2009-05-19T15:15:34Z</time>
      </trkpt>
      <trkpt lat="43.91698" lon="5.23397">
        <ele>208.26</ele>
        <time>2009-05-19T15:15:51Z</time>
      </trkpt>
      <trkpt lat="43.91691" lon="5.23382">
        <ele>212.59</ele>
        <time>2009-05-19T15:16:05Z</time>
      </trkpt>
      <trkpt lat="43.91684" lon="5.2337">
        <ele>217.88</ele>
        <time>2009-05-19T15:16:17Z</time>
      </trkpt>
      <trkpt lat="43.9168" lon="5.23352">
        <ele>212.59</ele>
        <time>2009-05-19T15:16:30Z</time>
      </trkpt>
      <trkpt lat="43.91678" lon="5.23343">
        <ele>204.9</ele>
        <time>2009-05-19T15:16:36Z</time>
      </trkpt>
      <trkpt lat="43.91672" lon="5.23323">
        <ele>211.15</ele>
        <time>2009-05-19T15:16:52Z</time>
      </trkpt>
      <trkpt lat="43.91672" lon="5.23313">
        <ele>212.11</ele>
        <time>2009-05-19T15:17:04Z</time>
      </trkpt>
      <trkpt lat="43.91672" lon="5.23308">
        <ele>211.63</ele>
        <time>2009-05-19T15:17:10Z</time>
      </trkpt>
    </trkseg>
  </trk>
</gpx>